Time,TemperatureF,DewpointF,PressureIn,WindDirection,WindDirectionDegrees,WindSpeedMPH,WindSpeedGustMPH,Humidity,HourlyPrecipIn,Conditions,Clouds,dailyrainin,SoftwareType,DateUTC
2018-01-22 00:00:00,58.2,54.7,30.07,SSE,147,3.0,4.0,88,0.00,,,0.00,VWS V12.08,2018-01-22 06:00:00,
2018-01-22 00:01:00,58.3,54.8,30.07,SE,145,1.0,4.0,88,0.00,,,0.00,VWS V12.08,2018-01-22 06:01:00,
2018-01-22 00:02:00,58.3,54.8,30.07,SE,143,3.0,5.0,88,0.00,,,0.00,VWS V12.08,2018-01-22 06:02:00,
2018-01-22 00:03:00,58.4,54.9,30.07,SE,143,0.0,5.0,88,0.00,,,0.00,VWS V12.08,2018-01-22 06:03:00,
2018-01-22 00:04:00,58.4,54.9,30.07,SSE,163,0.0,5.0,88,0.00,,,0.00,VWS V12.08,2018-01-22 06:04:00,
2018-01-22 00:05:00,58.5,55.0,30.07,SSE,163,0.0,5.0,88,0.00,,,0.00,VWS V12.08,2018-01-22 06:05:00,
2018-01-22 00:06:00,58.4,54.5,30.07,SSE,163,0.0,5.0,87,0.00,,,0.00,VWS V12.08,2018-01-22 06:06:00,
2018-01-22 00:07:00,58.5,54.7,30.07,SSE,163,0.0,5.0,87,0.00,,,0.00,VWS V12.08,2018-01-22 06:07:00,
2018-01-22 00:08:00,58.5,54.7,30.07,SSE,163,0.0,5.0,87,0.00,,,0.00,VWS V12.08,2018-01-22 06:08:00,
2018-01-22 00:09:00,58.5,54.7,30.07,SSE,163,0.0,5.0,87,0.00,,,0.00,VWS V12.08,2018-01-22 06:09:00,
2018-01-22 00:10:00,58.4,54.5,30.06,SSE,163,0.0,5.0,87,0.00,,,0.00,VWS V12.08,2018-01-22 06:10:00,
2018-01-22 00:11:00,58.4,54.5,30.06,SSE,163,0.0,5.0,87,0.00,,,0.00,VWS V12.08,2018-01-22 06:11:00,
2018-01-22 00:12:00,58.4,54.5,30.06,SSE,163,0.0,5.0,87,0.00,,,0.00,VWS V12.08,2018-01-22 06:12:00,
2018-01-22 00:13:00,58.4,54.5,30.06,SSE,163,0.0,5.0,87,0.00,,,0.00,VWS V12.08,2018-01-22 06:13:00,
2018-01-22 00:14:00,58.4,54.5,30.06,SSE,163,0.0,5.0,87,0.00,,,0.00,VWS V12.08,2018-01-22 06:14:00,
2018-01-22 00:15:00,58.4,54.5,30.06,SSE,163,0.0,5.0,87,0.00,,,0.00,VWS V12.08,2018-01-22 06:15:00,
2018-01-22 00:16:00,58.3,54.5,30.06,SSE,163,0.0,5.0,87,0.00,,,0.00,VWS V12.08,2018-01-22 06:16:00,
2018-01-22 00:17:00,58.2,54.4,30.06,SSE,163,0.0,5.0,87,0.00,,,0.00,VWS V12.08,2018-01-22 06:17:00,
2018-01-22 00:18:00,58.2,54.4,30.06,SSE,163,0.0,5.0,87,0.00,,,0.00,VWS V12.08,2018-01-22 06:18:00,
2018-01-22 00:19:00,58.2,54.4,30.06,SSE,163,0.0,5.0,87,0.00,,,0.00,VWS V12.08,2018-01-22 06:19:00,
2018-01-22 00:20:00,58.2,54.4,30.06,SSE,163,0.0,5.0,87,0.00,,,0.00,VWS V12.08,2018-01-22 06:20:00,
2018-01-22 00:21:00,58.2,54.7,30.06,SSE,163,0.0,5.0,88,0.00,,,0.00,VWS V12.08,2018-01-22 06:21:00,
2018-01-22 00:22:00,58.2,54.7,30.06,SSE,163,0.0,5.0,88,0.00,,,0.00,VWS V12.08,2018-01-22 06:22:00,
2018-01-22 00:23:00,58.1,54.6,30.06,SSE,163,0.0,5.0,88,0.00,,,0.00,VWS V12.08,2018-01-22 06:23:00,
2018-01-22 00:24:00,58.1,54.6,30.06,SSE,163,0.0,5.0,88,0.00,,,0.00,VWS V12.08,2018-01-22 06:24:00,
2018-01-22 00:25:00,58.1,54.6,30.06,SSE,163,0.0,5.0,88,0.00,,,0.00,VWS V12.08,2018-01-22 06:25:00,
2018-01-22 00:26:00,58.0,54.5,30.06,SSE,163,0.0,5.0,88,0.00,,,0.00,VWS V12.08,2018-01-22 06:26:00,
2018-01-22 00:27:00,58.0,54.5,30.06,SSE,163,0.0,5.0,88,0.00,,,0.00,VWS V12.08,2018-01-22 06:27:00,
2018-01-22 00:28:00,58.0,54.5,30.06,SSE,163,0.0,5.0,88,0.00,,,0.00,VWS V12.08,2018-01-22 06:28:00,
2018-01-22 00:29:00,58.0,54.5,30.06,SSE,163,0.0,5.0,88,0.00,,,0.00,VWS V12.08,2018-01-22 06:29:00,
2018-01-22 00:30:00,58.0,54.5,30.07,SSE,163,0.0,5.0,88,0.00,,,0.00,VWS V12.08,2018-01-22 06:30:00,
2018-01-22 00:31:00,58.0,54.5,30.06,SSE,163,0.0,0.0,88,0.00,,,0.00,VWS V12.08,2018-01-22 06:31:00,
2018-01-22 00:32:00,57.9,54.4,30.07,SSE,163,0.0,0.0,88,0.00,,,0.00,VWS V12.08,2018-01-22 06:32:00,
2018-01-22 00:33:00,57.9,54.4,30.07,SSE,163,0.0,0.0,88,0.00,,,0.00,VWS V12.08,2018-01-22 06:33:00,
2018-01-22 00:34:00,57.8,54.0,30.06,SSE,163,0.0,0.0,87,0.00,,,0.00,VWS V12.08,2018-01-22 06:34:00,
2018-01-22 00:35:00,57.7,53.5,30.06,SSE,163,0.0,0.0,86,0.00,,,0.00,VWS V12.08,2018-01-22 06:35:00,
2018-01-22 00:36:00,57.5,53.3,30.06,SSE,163,0.0,0.0,86,0.00,,,0.00,VWS V12.08,2018-01-22 06:36:00,
2018-01-22 00:37:00,57.3,52.8,30.06,SSE,163,0.0,0.0,85,0.00,,,0.00,VWS V12.08,2018-01-22 06:37:00,
2018-01-22 00:38:00,57.1,52.6,30.06,SSE,163,0.0,0.0,85,0.00,,,0.00,VWS V12.08,2018-01-22 06:38:00,
2018-01-22 00:39:00,56.9,52.4,30.06,SSE,163,0.0,0.0,85,0.00,,,0.00,VWS V12.08,2018-01-22 06:39:00,
2018-01-22 00:40:00,56.7,52.2,30.06,SSE,163,0.0,0.0,85,0.00,,,0.00,VWS V12.08,2018-01-22 06:40:00,
2018-01-22 00:41:00,56.5,52.0,30.06,SSE,163,0.0,0.0,85,0.00,,,0.00,VWS V12.08,2018-01-22 06:41:00,
2018-01-22 00:42:00,56.3,51.9,30.06,SSE,163,0.0,0.0,85,0.00,,,0.00,VWS V12.08,2018-01-22 06:42:00,
2018-01-22 00:43:00,56.1,51.7,30.06,SSE,163,0.0,0.0,85,0.00,,,0.00,VWS V12.08,2018-01-22 06:43:00,
2018-01-22 00:44:00,55.9,51.5,30.06,SSE,163,0.0,0.0,85,0.00,,,0.00,VWS V12.08,2018-01-22 06:44:00,
2018-01-22 00:45:00,55.7,51.3,30.06,SSE,163,0.0,0.0,85,0.00,,,0.00,VWS V12.08,2018-01-22 06:45:00,
2018-01-22 00:46:00,55.6,51.5,30.06,SSE,163,0.0,0.0,86,0.00,,,0.00,VWS V12.08,2018-01-22 06:46:00,
2018-01-22 00:47:00,55.5,51.4,30.06,SSE,163,0.0,0.0,86,0.00,,,0.00,VWS V12.08,2018-01-22 06:47:00,
2018-01-22 00:48:00,55.4,51.6,30.06,SSE,163,0.0,0.0,87,0.00,,,0.00,VWS V12.08,2018-01-22 06:48:00,
2018-01-22 00:49:00,55.3,51.5,30.06,SSE,163,0.0,0.0,87,0.00,,,0.00,VWS V12.08,2018-01-22 06:49:00,
2018-01-22 00:50:00,55.2,51.4,30.06,SSE,163,0.0,0.0,87,0.00,,,0.00,VWS V12.08,2018-01-22 06:50:00,
2018-01-22 00:51:00,55.2,51.7,30.06,SSE,163,0.0,0.0,88,0.00,,,0.00,VWS V12.08,2018-01-22 06:51:00,
2018-01-22 00:52:00,55.1,51.6,30.06,SSE,163,0.0,0.0,88,0.00,,,0.00,VWS V12.08,2018-01-22 06:52:00,
2018-01-22 00:53:00,55.1,51.9,30.06,SSE,163,0.0,0.0,89,0.00,,,0.00,VWS V12.08,2018-01-22 06:53:00,
2018-01-22 00:54:00,55.1,51.9,30.06,SSE,163,0.0,0.0,89,0.00,,,0.00,VWS V12.08,2018-01-22 06:54:00,
2018-01-22 00:55:00,55.0,51.8,30.06,SSE,163,0.0,0.0,89,0.00,,,0.00,VWS V12.08,2018-01-22 06:55:00,
2018-01-22 00:56:00,55.0,51.8,30.06,SSE,163,0.0,0.0,89,0.00,,,0.00,VWS V12.08,2018-01-22 06:56:00,
2018-01-22 00:57:00,55.0,51.8,30.06,SSE,163,0.0,0.0,89,0.00,,,0.00,VWS V12.08,2018-01-22 06:57:00,
2018-01-22 00:58:00,55.0,52.1,30.06,SSE,163,0.0,0.0,90,0.00,,,0.00,VWS V12.08,2018-01-22 06:58:00,
2018-01-22 00:59:00,55.0,52.1,30.06,SSE,163,0.0,0.0,90,0.00,,,0.00,VWS V12.08,2018-01-22 06:59:00,
2018-01-22 01:00:00,55.0,52.1,30.06,SSE,163,0.0,0.0,90,0.00,,,0.00,VWS V12.08,2018-01-22 07:00:00,
2018-01-22 01:01:00,55.0,52.1,30.06,SSE,163,0.0,0.0,90,0.00,,,0.00,VWS V12.08,2018-01-22 07:01:00,
2018-01-22 01:02:00,54.9,52.0,30.06,SSE,163,0.0,0.0,90,0.00,,,0.00,VWS V12.08,2018-01-22 07:02:00,
2018-01-22 01:03:00,54.9,52.0,30.06,SSE,163,0.0,0.0,90,0.00,,,0.00,VWS V12.08,2018-01-22 07:03:00,
2018-01-22 01:04:00,54.9,52.0,30.06,SSE,163,0.0,0.0,90,0.00,,,0.00,VWS V12.08,2018-01-22 07:04:00,
2018-01-22 01:05:00,54.8,51.9,30.06,SSE,163,0.0,0.0,90,0.00,,,0.00,VWS V12.08,2018-01-22 07:05:00,
2018-01-22 01:06:00,54.7,51.8,30.06,SSE,163,0.0,0.0,90,0.00,,,0.00,VWS V12.08,2018-01-22 07:06:00,
2018-01-22 01:07:00,54.7,51.8,30.06,SSE,163,0.0,0.0,90,0.00,,,0.00,VWS V12.08,2018-01-22 07:07:00,
2018-01-22 01:08:00,54.6,51.7,30.06,SSE,163,0.0,0.0,90,0.00,,,0.00,VWS V12.08,2018-01-22 07:08:00,
2018-01-22 01:09:00,54.5,51.3,30.06,SSE,163,0.0,0.0,89,0.00,,,0.00,VWS V12.08,2018-01-22 07:09:00,
2018-01-22 01:10:00,54.3,51.1,30.06,SSE,163,0.0,0.0,89,0.00,,,0.00,VWS V12.08,2018-01-22 07:10:00,
2018-01-22 01:11:00,54.2,51.0,30.06,SSE,163,0.0,0.0,89,0.00,,,0.00,VWS V12.08,2018-01-22 07:11:00,
2018-01-22 01:12:00,54.0,50.8,30.06,SSE,163,0.0,0.0,89,0.00,,,0.00,VWS V12.08,2018-01-22 07:12:00,
2018-01-22 01:13:00,53.9,50.7,30.06,SSE,163,0.0,0.0,89,0.00,,,0.00,VWS V12.08,2018-01-22 07:13:00,
2018-01-22 01:14:00,53.6,50.1,30.06,SSE,163,0.0,0.0,88,0.00,,,0.00,VWS V12.08,2018-01-22 07:14:00,
2018-01-22 01:15:00,53.6,50.4,30.06,SSE,163,0.0,0.0,89,0.00,,,0.00,VWS V12.08,2018-01-22 07:15:00,
2018-01-22 01:16:00,53.3,50.2,30.06,SSE,163,0.0,0.0,89,0.00,,,0.00,VWS V12.08,2018-01-22 07:16:00,
2018-01-22 01:17:00,53.2,50.0,30.06,SSE,163,0.0,0.0,89,0.00,,,0.00,VWS V12.08,2018-01-22 07:17:00,
2018-01-22 01:18:00,53.1,50.0,30.06,SSE,163,0.0,0.0,89,0.00,,,0.00,VWS V12.08,2018-01-22 07:18:00,
2018-01-22 01:19:00,53.0,49.8,30.06,SSE,163,0.0,0.0,89,0.00,,,0.00,VWS V12.08,2018-01-22 07:19:00,
2018-01-22 01:20:00,53.0,49.8,30.06,SSE,163,0.0,0.0,89,0.00,,,0.00,VWS V12.08,2018-01-22 07:20:00,
2018-01-22 01:21:00,52.9,49.8,30.06,SSE,163,0.0,0.0,89,0.00,,,0.00,VWS V12.08,2018-01-22 07:21:00,
2018-01-22 01:22:00,52.8,49.7,30.06,SSE,163,0.0,0.0,89,0.00,,,0.00,VWS V12.08,2018-01-22 07:22:00,
2018-01-22 01:23:00,52.7,49.8,30.06,SSE,163,0.0,0.0,90,0.00,,,0.00,VWS V12.08,2018-01-22 07:23:00,
2018-01-22 01:24:00,52.6,49.5,30.06,SSE,163,0.0,0.0,89,0.00,,,0.00,VWS V12.08,2018-01-22 07:24:00,
2018-01-22 01:25:00,52.5,49.7,30.06,SSE,163,0.0,0.0,90,0.00,,,0.00,VWS V12.08,2018-01-22 07:25:00,
2018-01-22 01:26:00,52.5,49.7,30.06,SSE,163,0.0,0.0,90,0.00,,,0.00,VWS V12.08,2018-01-22 07:26:00,
2018-01-22 01:27:00,52.5,49.7,30.06,SSE,163,0.0,0.0,90,0.00,,,0.00,VWS V12.08,2018-01-22 07:27:00,
2018-01-22 01:28:00,52.4,49.6,30.06,SSE,163,0.0,0.0,90,0.00,,,0.00,VWS V12.08,2018-01-22 07:28:00,
2018-01-22 01:29:00,52.3,49.5,30.06,SSE,163,0.0,0.0,90,0.00,,,0.00,VWS V12.08,2018-01-22 07:29:00,
2018-01-22 01:30:00,52.3,49.5,30.06,SSE,163,0.0,0.0,90,0.00,,,0.00,VWS V12.08,2018-01-22 07:30:00,
2018-01-22 01:31:00,52.3,49.5,30.06,SSE,163,0.0,0.0,90,0.00,,,0.00,VWS V12.08,2018-01-22 07:31:00,
2018-01-22 01:32:00,52.3,49.5,30.06,SSE,163,0.0,0.0,90,0.00,,,0.00,VWS V12.08,2018-01-22 07:32:00,
2018-01-22 01:33:00,52.2,49.4,30.06,SSE,163,0.0,0.0,90,0.00,,,0.00,VWS V12.08,2018-01-22 07:33:00,
2018-01-22 01:34:00,52.2,49.4,30.06,SSE,163,0.0,0.0,90,0.00,,,0.00,VWS V12.08,2018-01-22 07:34:00,
2018-01-22 01:35:00,52.1,49.3,30.06,SSE,163,0.0,0.0,90,0.00,,,0.00,VWS V12.08,2018-01-22 07:35:00,
2018-01-22 01:36:00,52.1,49.3,30.06,SSE,163,0.0,0.0,90,0.00,,,0.00,VWS V12.08,2018-01-22 07:36:00,
2018-01-22 01:37:00,52.1,49.3,30.06,SSE,163,0.0,0.0,90,0.00,,,0.00,VWS V12.08,2018-01-22 07:37:00,
2018-01-22 01:38:00,52.0,49.2,30.06,SSE,163,0.0,0.0,90,0.00,,,0.00,VWS V12.08,2018-01-22 07:38:00,
2018-01-22 01:39:00,52.0,49.2,30.06,SSE,163,0.0,0.0,90,0.00,,,0.00,VWS V12.08,2018-01-22 07:39:00,
2018-01-22 01:40:00,51.9,49.4,30.06,SSE,163,0.0,0.0,91,0.00,,,0.00,VWS V12.08,2018-01-22 07:40:00,
2018-01-22 01:41:00,51.9,49.4,30.06,SSE,163,0.0,0.0,91,0.00,,,0.00,VWS V12.08,2018-01-22 07:41:00,
2018-01-22 01:42:00,51.9,49.4,30.05,SSE,163,0.0,0.0,91,0.00,,,0.00,VWS V12.08,2018-01-22 07:42:00,
2018-01-22 01:43:00,51.9,49.4,30.05,SSE,163,0.0,0.0,91,0.00,,,0.00,VWS V12.08,2018-01-22 07:43:00,
2018-01-22 01:44:00,51.8,49.3,30.05,SSE,163,0.0,0.0,91,0.00,,,0.00,VWS V12.08,2018-01-22 07:44:00,
2018-01-22 01:45:00,51.8,49.3,30.05,SSE,163,0.0,0.0,91,0.00,,,0.00,VWS V12.08,2018-01-22 07:45:00,
2018-01-22 01:46:00,51.7,49.2,30.05,SSE,163,0.0,0.0,91,0.00,,,0.00,VWS V12.08,2018-01-22 07:46:00,
2018-01-22 01:47:00,51.7,49.2,30.05,SSE,163,0.0,0.0,91,0.00,,,0.00,VWS V12.08,2018-01-22 07:47:00,
2018-01-22 01:48:00,51.8,49.5,30.05,SSE,163,0.0,0.0,92,0.00,,,0.00,VWS V12.08,2018-01-22 07:48:00,
2018-01-22 01:49:00,51.8,49.5,30.06,SSE,163,0.0,0.0,92,0.00,,,0.00,VWS V12.08,2018-01-22 07:49:00,
2018-01-22 01:50:00,51.9,49.7,30.06,SSE,163,0.0,0.0,92,0.00,,,0.00,VWS V12.08,2018-01-22 07:50:00,
2018-01-22 01:51:00,51.9,49.7,30.05,SSE,163,0.0,0.0,92,0.00,,,0.00,VWS V12.08,2018-01-22 07:51:00,
2018-01-22 01:52:00,51.8,49.5,30.05,SSE,163,0.0,0.0,92,0.00,,,0.00,VWS V12.08,2018-01-22 07:52:00,
2018-01-22 01:53:00,51.8,49.5,30.05,SSE,163,0.0,0.0,92,0.00,,,0.00,VWS V12.08,2018-01-22 07:53:00,
2018-01-22 01:54:00,51.7,49.5,30.05,SSE,163,0.0,0.0,92,0.00,,,0.00,VWS V12.08,2018-01-22 07:54:00,
2018-01-22 01:55:00,51.7,49.5,30.05,SSE,163,0.0,0.0,92,0.00,,,0.00,VWS V12.08,2018-01-22 07:55:00,
2018-01-22 01:56:00,51.7,49.5,30.05,SSE,163,0.0,0.0,92,0.00,,,0.00,VWS V12.08,2018-01-22 07:56:00,
2018-01-22 01:57:00,51.7,49.5,30.05,SSE,163,0.0,0.0,92,0.00,,,0.00,VWS V12.08,2018-01-22 07:57:00,
2018-01-22 01:58:00,51.7,49.5,30.05,SSE,163,0.0,0.0,92,0.00,,,0.00,VWS V12.08,2018-01-22 07:58:00,
2018-01-22 01:59:00,51.7,49.5,30.05,SSE,163,0.0,0.0,92,0.00,,,0.00,VWS V12.08,2018-01-22 07:59:00,
2018-01-22 02:00:00,51.7,49.5,30.04,SSE,163,0.0,0.0,92,0.00,,,0.00,VWS V12.08,2018-01-22 08:00:00,
2018-01-22 02:01:00,51.7,49.5,30.04,SSE,163,0.0,0.0,92,0.00,,,0.00,VWS V12.08,2018-01-22 08:01:00,
2018-01-22 02:02:00,51.6,49.4,30.04,SSE,163,0.0,0.0,92,0.00,,,0.00,VWS V12.08,2018-01-22 08:02:00,
2018-01-22 02:03:00,51.5,49.3,30.04,SSE,163,0.0,0.0,92,0.00,,,0.00,VWS V12.08,2018-01-22 08:03:00,
2018-01-22 02:04:00,51.5,49.3,30.04,SSE,163,0.0,0.0,92,0.00,,,0.00,VWS V12.08,2018-01-22 08:04:00,
2018-01-22 02:05:00,51.5,49.3,30.04,SSE,163,0.0,0.0,92,0.00,,,0.00,VWS V12.08,2018-01-22 08:05:00,
2018-01-22 02:06:00,51.4,49.2,30.05,SSE,163,0.0,0.0,92,0.00,,,0.00,VWS V12.08,2018-01-22 08:06:00,
2018-01-22 02:07:00,51.4,49.2,30.05,SSE,163,0.0,0.0,92,0.00,,,0.00,VWS V12.08,2018-01-22 08:07:00,
2018-01-22 02:08:00,51.4,49.2,30.05,SSE,163,0.0,0.0,92,0.00,,,0.00,VWS V12.08,2018-01-22 08:08:00,
2018-01-22 02:09:00,51.4,49.2,30.04,SSE,163,0.0,0.0,92,0.00,,,0.00,VWS V12.08,2018-01-22 08:09:00,
2018-01-22 02:10:00,51.4,49.2,30.05,SSE,163,0.0,0.0,92,0.00,,,0.00,VWS V12.08,2018-01-22 08:10:00,
2018-01-22 02:11:00,51.4,49.2,30.05,SSE,163,0.0,0.0,92,0.00,,,0.00,VWS V12.08,2018-01-22 08:11:00,
2018-01-22 02:12:00,51.3,49.1,30.05,SSE,163,0.0,0.0,92,0.00,,,0.00,VWS V12.08,2018-01-22 08:12:00,
2018-01-22 02:13:00,51.3,49.1,30.05,SSE,163,0.0,0.0,92,0.00,,,0.00,VWS V12.08,2018-01-22 08:13:00,
2018-01-22 02:14:00,51.2,49.2,30.05,SSE,163,0.0,0.0,93,0.00,,,0.00,VWS V12.08,2018-01-22 08:14:00,
2018-01-22 02:15:00,51.2,49.0,30.05,SSE,163,0.0,0.0,92,0.00,,,0.00,VWS V12.08,2018-01-22 08:15:00,
2018-01-22 02:16:00,51.2,49.2,30.05,SSE,163,0.0,0.0,93,0.00,,,0.00,VWS V12.08,2018-01-22 08:16:00,
2018-01-22 02:17:00,51.2,49.2,30.05,SSE,163,0.0,0.0,93,0.00,,,0.00,VWS V12.08,2018-01-22 08:17:00,
2018-01-22 02:18:00,51.1,49.2,30.05,SSE,163,0.0,0.0,93,0.00,,,0.00,VWS V12.08,2018-01-22 08:18:00,
2018-01-22 02:19:00,51.1,49.2,30.05,SSE,163,0.0,0.0,93,0.00,,,0.00,VWS V12.08,2018-01-22 08:19:00,
2018-01-22 02:20:00,51.1,49.2,30.05,SSE,163,0.0,0.0,93,0.00,,,0.00,VWS V12.08,2018-01-22 08:20:00,
2018-01-22 02:21:00,51.0,49.0,30.05,SSE,163,0.0,0.0,93,0.00,,,0.00,VWS V12.08,2018-01-22 08:21:00,
2018-01-22 02:22:00,51.0,49.0,30.05,SSE,163,0.0,0.0,93,0.00,,,0.00,VWS V12.08,2018-01-22 08:22:00,
2018-01-22 02:23:00,51.0,49.0,30.05,SSE,163,0.0,0.0,93,0.00,,,0.00,VWS V12.08,2018-01-22 08:23:00,
2018-01-22 02:24:00,51.0,49.0,30.05,SSE,163,0.0,0.0,93,0.00,,,0.00,VWS V12.08,2018-01-22 08:24:00,
2018-01-22 02:25:00,50.9,49.0,30.05,SSE,163,0.0,0.0,93,0.00,,,0.00,VWS V12.08,2018-01-22 08:25:00,
2018-01-22 02:26:00,51.0,49.0,30.05,SSE,163,0.0,0.0,93,0.00,,,0.00,VWS V12.08,2018-01-22 08:26:00,
2018-01-22 02:27:00,50.9,49.0,30.05,SSE,163,0.0,0.0,93,0.00,,,0.00,VWS V12.08,2018-01-22 08:27:00,
2018-01-22 02:28:00,50.9,49.0,30.05,SSE,163,0.0,0.0,93,0.00,,,0.00,VWS V12.08,2018-01-22 08:28:00,
2018-01-22 02:29:00,50.9,49.0,30.05,SSE,163,0.0,0.0,93,0.00,,,0.00,VWS V12.08,2018-01-22 08:29:00,
2018-01-22 02:30:00,50.9,49.0,30.05,SSE,163,0.0,0.0,93,0.00,,,0.00,VWS V12.08,2018-01-22 08:30:00,
2018-01-22 02:31:00,50.9,49.0,30.04,SSE,163,0.0,0.0,93,0.00,,,0.00,VWS V12.08,2018-01-22 08:31:00,
2018-01-22 02:32:00,50.9,49.0,30.04,SSE,163,0.0,0.0,93,0.00,,,0.00,VWS V12.08,2018-01-22 08:32:00,
2018-01-22 02:33:00,50.9,49.0,30.04,SSE,163,0.0,0.0,93,0.00,,,0.00,VWS V12.08,2018-01-22 08:33:00,
2018-01-22 02:34:00,50.9,49.0,30.04,SSE,163,0.0,0.0,93,0.00,,,0.00,VWS V12.08,2018-01-22 08:34:00,
2018-01-22 02:35:00,50.9,49.0,30.04,SSE,163,0.0,0.0,93,0.00,,,0.00,VWS V12.08,2018-01-22 08:35:00,
2018-01-22 02:36:00,50.9,49.0,30.04,SSE,163,0.0,0.0,93,0.00,,,0.00,VWS V12.08,2018-01-22 08:36:00,
2018-01-22 02:37:00,50.8,48.8,30.04,SSE,163,0.0,0.0,93,0.00,,,0.00,VWS V12.08,2018-01-22 08:37:00,
2018-01-22 02:38:00,50.8,48.8,30.04,SSE,163,0.0,0.0,93,0.00,,,0.00,VWS V12.08,2018-01-22 08:38:00,
2018-01-22 02:39:00,50.8,48.8,30.04,SSE,163,0.0,0.0,93,0.00,,,0.00,VWS V12.08,2018-01-22 08:39:00,
2018-01-22 02:40:00,50.9,49.2,30.04,SSE,163,0.0,0.0,94,0.00,,,0.00,VWS V12.08,2018-01-22 08:40:00,
2018-01-22 02:41:00,50.9,49.2,30.04,SSE,163,0.0,0.0,94,0.00,,,0.00,VWS V12.08,2018-01-22 08:41:00,
2018-01-22 02:42:00,50.9,49.2,30.04,SSE,163,0.0,0.0,94,0.00,,,0.00,VWS V12.08,2018-01-22 08:42:00,
2018-01-22 02:43:00,50.9,49.2,30.04,SSE,163,0.0,0.0,94,0.00,,,0.00,VWS V12.08,2018-01-22 08:43:00,
2018-01-22 02:44:00,50.9,49.2,30.04,SSE,163,0.0,0.0,94,0.00,,,0.00,VWS V12.08,2018-01-22 08:44:00,
2018-01-22 02:45:00,50.9,49.2,30.04,SSE,163,0.0,0.0,94,0.00,,,0.00,VWS V12.08,2018-01-22 08:45:00,
2018-01-22 02:46:00,50.9,49.2,30.04,SSE,163,0.0,0.0,94,0.00,,,0.00,VWS V12.08,2018-01-22 08:46:00,
2018-01-22 02:47:00,50.9,49.2,30.03,SSE,163,0.0,0.0,94,0.00,,,0.00,VWS V12.08,2018-01-22 08:47:00,
2018-01-22 02:48:00,50.9,49.2,30.03,SSE,163,0.0,0.0,94,0.00,,,0.00,VWS V12.08,2018-01-22 08:48:00,
2018-01-22 02:49:00,50.9,49.2,30.03,SSE,163,0.0,0.0,94,0.00,,,0.00,VWS V12.08,2018-01-22 08:49:00,
2018-01-22 02:50:00,51.0,49.3,30.03,SSE,163,0.0,0.0,94,0.00,,,0.00,VWS V12.08,2018-01-22 08:50:00,
2018-01-22 02:51:00,51.0,49.3,30.03,SSE,163,0.0,0.0,94,0.00,,,0.00,VWS V12.08,2018-01-22 08:51:00,
2018-01-22 02:52:00,51.0,49.3,30.03,SSE,163,0.0,0.0,94,0.00,,,0.00,VWS V12.08,2018-01-22 08:52:00,
2018-01-22 02:53:00,51.1,49.4,30.03,SSE,163,0.0,0.0,94,0.00,,,0.00,VWS V12.08,2018-01-22 08:53:00,
2018-01-22 02:54:00,51.1,49.4,30.03,SSE,163,0.0,0.0,94,0.00,,,0.00,VWS V12.08,2018-01-22 08:54:00,
2018-01-22 02:55:00,51.1,49.7,30.03,SSE,163,0.0,0.0,95,0.00,,,0.00,VWS V12.08,2018-01-22 08:55:00,
2018-01-22 02:56:00,51.2,49.8,30.03,SSE,163,0.0,0.0,95,0.00,,,0.00,VWS V12.08,2018-01-22 08:56:00,
2018-01-22 02:57:00,51.3,49.9,30.03,SSE,163,0.0,0.0,95,0.00,,,0.00,VWS V12.08,2018-01-22 08:57:00,
2018-01-22 02:58:00,51.4,50.0,30.03,SSE,163,0.0,0.0,95,0.00,,,0.00,VWS V12.08,2018-01-22 08:58:00,
2018-01-22 02:59:00,51.4,50.0,30.03,SSE,163,0.0,0.0,95,0.00,,,0.00,VWS V12.08,2018-01-22 08:59:00,
2018-01-22 03:00:00,51.4,50.0,30.03,SSE,163,0.0,0.0,95,0.00,,,0.00,VWS V12.08,2018-01-22 09:00:00,
2018-01-22 03:01:00,51.4,50.0,30.03,SSE,163,0.0,0.0,95,0.00,,,0.00,VWS V12.08,2018-01-22 09:01:00,
2018-01-22 03:02:00,51.5,50.1,30.03,SSE,163,0.0,0.0,95,0.00,,,0.00,VWS V12.08,2018-01-22 09:02:00,
2018-01-22 03:03:00,51.5,49.8,30.03,SSE,163,0.0,0.0,94,0.00,,,0.00,VWS V12.08,2018-01-22 09:03:00,
2018-01-22 03:04:00,51.5,50.1,30.02,SSE,163,0.0,0.0,95,0.00,,,0.00,VWS V12.08,2018-01-22 09:04:00,
2018-01-22 03:05:00,51.5,50.1,30.02,SSE,163,0.0,0.0,95,0.00,,,0.00,VWS V12.08,2018-01-22 09:05:00,
2018-01-22 03:06:00,51.5,50.1,30.02,SSE,163,0.0,0.0,95,0.00,,,0.00,VWS V12.08,2018-01-22 09:06:00,
2018-01-22 03:07:00,51.6,50.2,30.02,SSE,163,0.0,0.0,95,0.00,,,0.00,VWS V12.08,2018-01-22 09:07:00,
2018-01-22 03:08:00,51.6,50.2,30.02,SSE,163,0.0,0.0,95,0.00,,,0.00,VWS V12.08,2018-01-22 09:08:00,
2018-01-22 03:09:00,51.7,50.3,30.02,SSE,163,0.0,0.0,95,0.00,,,0.00,VWS V12.08,2018-01-22 09:09:00,
2018-01-22 03:10:00,51.7,50.3,30.02,SSE,163,0.0,0.0,95,0.00,,,0.00,VWS V12.08,2018-01-22 09:10:00,
2018-01-22 03:11:00,51.8,50.4,30.02,SSE,163,0.0,0.0,95,0.00,,,0.00,VWS V12.08,2018-01-22 09:11:00,
2018-01-22 03:12:00,51.9,50.5,30.02,SSE,163,0.0,0.0,95,0.00,,,0.00,VWS V12.08,2018-01-22 09:12:00,
2018-01-22 03:13:00,52.1,51.0,30.02,SSE,163,0.0,0.0,96,0.00,,,0.00,VWS V12.08,2018-01-22 09:13:00,
2018-01-22 03:14:00,52.2,51.1,30.02,SSE,163,0.0,0.0,96,0.00,,,0.00,VWS V12.08,2018-01-22 09:14:00,
2018-01-22 03:15:00,52.3,51.2,30.02,SSE,163,0.0,0.0,96,0.00,,,0.00,VWS V12.08,2018-01-22 09:15:00,
2018-01-22 03:16:00,52.4,51.3,30.02,SSE,163,0.0,0.0,96,0.00,,,0.00,VWS V12.08,2018-01-22 09:16:00,
2018-01-22 03:17:00,52.5,51.4,30.02,SSE,163,0.0,0.0,96,0.00,,,0.00,VWS V12.08,2018-01-22 09:17:00,
2018-01-22 03:18:00,52.6,51.5,30.02,SSE,163,0.0,0.0,96,0.00,,,0.00,VWS V12.08,2018-01-22 09:18:00,
2018-01-22 03:19:00,52.7,51.6,30.02,SSE,163,0.0,0.0,96,0.00,,,0.00,VWS V12.08,2018-01-22 09:19:00,
2018-01-22 03:20:00,52.7,51.6,30.02,SSE,163,0.0,0.0,96,0.00,,,0.00,VWS V12.08,2018-01-22 09:20:00,
2018-01-22 03:21:00,52.7,51.6,30.02,SSE,163,0.0,0.0,96,0.00,,,0.00,VWS V12.08,2018-01-22 09:21:00,
2018-01-22 03:22:00,52.8,51.7,30.02,SSE,163,0.0,0.0,96,0.00,,,0.00,VWS V12.08,2018-01-22 09:22:00,
2018-01-22 03:23:00,52.8,51.7,30.02,SSE,163,0.0,0.0,96,0.00,,,0.00,VWS V12.08,2018-01-22 09:23:00,
2018-01-22 03:24:00,52.8,51.4,30.02,SSE,163,0.0,0.0,95,0.00,,,0.00,VWS V12.08,2018-01-22 09:24:00,
2018-01-22 03:25:00,52.8,51.4,30.02,SSE,163,0.0,0.0,95,0.00,,,0.00,VWS V12.08,2018-01-22 09:25:00,
2018-01-22 03:26:00,52.9,51.5,30.02,SSE,163,0.0,0.0,95,0.00,,,0.00,VWS V12.08,2018-01-22 09:26:00,
2018-01-22 03:27:00,52.9,51.5,30.02,SSE,163,0.0,0.0,95,0.00,,,0.00,VWS V12.08,2018-01-22 09:27:00,
2018-01-22 03:28:00,53.0,51.6,30.02,SSE,163,0.0,0.0,95,0.00,,,0.00,VWS V12.08,2018-01-22 09:28:00,
2018-01-22 03:29:00,52.9,51.5,30.02,SSE,163,0.0,0.0,95,0.00,,,0.00,VWS V12.08,2018-01-22 09:29:00,
2018-01-22 03:30:00,53.0,51.6,30.02,SSE,163,0.0,0.0,95,0.00,,,0.00,VWS V12.08,2018-01-22 09:30:00,
2018-01-22 03:31:00,53.0,51.6,30.02,SSE,163,0.0,0.0,95,0.00,,,0.00,VWS V12.08,2018-01-22 09:31:00,
2018-01-22 03:32:00,53.0,51.6,30.02,SSE,163,0.0,0.0,95,0.00,,,0.00,VWS V12.08,2018-01-22 09:32:00,
2018-01-22 03:33:00,52.9,51.5,30.02,SSE,163,0.0,0.0,95,0.00,,,0.00,VWS V12.08,2018-01-22 09:33:00,
2018-01-22 03:34:00,52.9,51.5,30.02,SSE,163,0.0,0.0,95,0.00,,,0.00,VWS V12.08,2018-01-22 09:34:00,
2018-01-22 03:35:00,52.8,51.4,30.03,SSE,163,0.0,0.0,95,0.00,,,0.00,VWS V12.08,2018-01-22 09:35:00,
2018-01-22 03:36:00,52.8,51.4,30.03,SSE,163,0.0,0.0,95,0.00,,,0.00,VWS V12.08,2018-01-22 09:36:00,
2018-01-22 03:37:00,52.7,51.3,30.03,SSE,163,0.0,0.0,95,0.00,,,0.00,VWS V12.08,2018-01-22 09:37:00,
2018-01-22 03:38:00,52.7,51.3,30.03,SSE,163,0.0,0.0,95,0.00,,,0.00,VWS V12.08,2018-01-22 09:38:00,
2018-01-22 03:39:00,52.6,51.2,30.03,SSE,163,0.0,0.0,95,0.00,,,0.00,VWS V12.08,2018-01-22 09:39:00,
2018-01-22 03:40:00,52.6,51.2,30.03,SSE,163,0.0,0.0,95,0.00,,,0.00,VWS V12.08,2018-01-22 09:40:00,
2018-01-22 03:41:00,52.6,51.2,30.03,SSE,163,0.0,0.0,95,0.00,,,0.00,VWS V12.08,2018-01-22 09:41:00,
2018-01-22 03:42:00,52.5,51.1,30.03,SSE,163,0.0,0.0,95,0.00,,,0.00,VWS V12.08,2018-01-22 09:42:00,
2018-01-22 03:43:00,52.5,51.1,30.03,SSE,163,0.0,0.0,95,0.00,,,0.00,VWS V12.08,2018-01-22 09:43:00,
2018-01-22 03:44:00,52.4,50.7,30.03,SSE,163,0.0,0.0,94,0.00,,,0.00,VWS V12.08,2018-01-22 09:44:00,
2018-01-22 03:45:00,52.4,50.7,30.03,SSE,163,0.0,0.0,94,0.00,,,0.00,VWS V12.08,2018-01-22 09:45:00,
2018-01-22 03:46:00,52.3,50.9,30.03,SSE,163,0.0,0.0,95,0.00,,,0.00,VWS V12.08,2018-01-22 09:46:00,
2018-01-22 03:47:00,52.3,50.6,30.03,SSE,163,0.0,0.0,94,0.00,,,0.00,VWS V12.08,2018-01-22 09:47:00,
2018-01-22 03:48:00,52.2,50.5,30.03,SSE,163,0.0,0.0,94,0.00,,,0.00,VWS V12.08,2018-01-22 09:48:00,
2018-01-22 03:49:00,52.1,50.4,30.03,SSE,163,0.0,0.0,94,0.00,,,0.00,VWS V12.08,2018-01-22 09:49:00,
2018-01-22 03:50:00,52.2,50.8,30.03,SSE,163,0.0,0.0,95,0.00,,,0.00,VWS V12.08,2018-01-22 09:50:00,
2018-01-22 03:51:00,52.1,50.7,30.03,SSE,163,0.0,0.0,95,0.00,,,0.00,VWS V12.08,2018-01-22 09:51:00,
2018-01-22 03:52:00,52.2,50.8,30.03,SSE,163,0.0,0.0,95,0.00,,,0.00,VWS V12.08,2018-01-22 09:52:00,
2018-01-22 03:53:00,52.1,50.7,30.03,SSE,163,0.0,0.0,95,0.00,,,0.00,VWS V12.08,2018-01-22 09:53:00,
2018-01-22 03:54:00,52.1,50.7,30.02,SSE,163,0.0,0.0,95,0.00,,,0.00,VWS V12.08,2018-01-22 09:54:00,
2018-01-22 03:55:00,52.1,50.7,30.02,SSE,163,0.0,0.0,95,0.00,,,0.00,VWS V12.08,2018-01-22 09:55:00,
2018-01-22 03:56:00,52.0,50.6,30.02,SSE,163,0.0,0.0,95,0.00,,,0.00,VWS V12.08,2018-01-22 09:56:00,
2018-01-22 03:57:00,51.9,50.2,30.02,SSE,163,0.0,0.0,94,0.00,,,0.00,VWS V12.08,2018-01-22 09:57:00,
2018-01-22 03:58:00,51.9,50.2,30.02,SSE,163,0.0,0.0,94,0.00,,,0.00,VWS V12.08,2018-01-22 09:58:00,
2018-01-22 03:59:00,51.8,50.1,30.02,SSE,163,0.0,0.0,94,0.00,,,0.00,VWS V12.08,2018-01-22 09:59:00,
2018-01-22 04:00:00,51.7,50.0,30.02,SSE,163,0.0,0.0,94,0.00,,,0.00,VWS V12.08,2018-01-22 10:00:00,
2018-01-22 04:01:00,51.7,50.0,30.02,SSE,163,0.0,0.0,94,0.00,,,0.00,VWS V12.08,2018-01-22 10:01:00,
2018-01-22 04:02:00,51.7,50.3,30.01,SSE,163,0.0,0.0,95,0.00,,,0.00,VWS V12.08,2018-01-22 10:02:00,
2018-01-22 04:03:00,51.7,50.3,30.01,SSE,163,0.0,0.0,95,0.00,,,0.00,VWS V12.08,2018-01-22 10:03:00,
2018-01-22 04:04:00,51.7,50.3,30.01,SSE,163,0.0,0.0,95,0.00,,,0.00,VWS V12.08,2018-01-22 10:04:00,
2018-01-22 04:05:00,51.7,50.3,30.01,SSE,163,0.0,0.0,95,0.00,,,0.00,VWS V12.08,2018-01-22 10:05:00,
2018-01-22 04:06:00,51.7,50.3,30.01,SSE,163,0.0,0.0,95,0.00,,,0.00,VWS V12.08,2018-01-22 10:06:00,
2018-01-22 04:07:00,51.7,50.0,30.01,SSE,163,0.0,0.0,94,0.00,,,0.00,VWS V12.08,2018-01-22 10:07:00,
2018-01-22 04:08:00,51.5,50.1,30.01,SSE,163,0.0,0.0,95,0.00,,,0.00,VWS V12.08,2018-01-22 10:08:00,
2018-01-22 04:09:00,51.7,50.3,30.01,SSE,163,0.0,0.0,95,0.00,,,0.00,VWS V12.08,2018-01-22 10:09:00,
2018-01-22 04:10:00,51.7,50.3,30.01,SSE,163,0.0,0.0,95,0.00,,,0.00,VWS V12.08,2018-01-22 10:10:00,
2018-01-22 04:11:00,51.6,50.2,30.01,SSE,163,0.0,0.0,95,0.00,,,0.00,VWS V12.08,2018-01-22 10:11:00,
2018-01-22 04:12:00,51.7,50.3,30.01,SSE,163,0.0,0.0,95,0.00,,,0.00,VWS V12.08,2018-01-22 10:12:00,
2018-01-22 04:13:00,51.8,50.7,30.01,SSE,163,0.0,0.0,96,0.00,,,0.00,VWS V12.08,2018-01-22 10:13:00,
2018-01-22 04:14:00,51.9,50.8,30.01,SSE,163,0.0,0.0,96,0.00,,,0.00,VWS V12.08,2018-01-22 10:14:00,
2018-01-22 04:15:00,52.1,51.0,30.01,SSE,163,0.0,0.0,96,0.00,,,0.00,VWS V12.08,2018-01-22 10:15:00,
2018-01-22 04:16:00,52.5,51.4,30.01,SSE,163,1.0,2.0,96,0.00,,,0.00,VWS V12.08,2018-01-22 10:16:00,
2018-01-22 04:17:00,52.9,52.1,30.01,SSE,163,2.0,4.0,97,0.00,,,0.00,VWS V12.08,2018-01-22 10:17:00,
2018-01-22 04:18:00,53.4,52.8,30.01,SSE,163,2.0,4.0,98,0.00,,,0.00,VWS V12.08,2018-01-22 10:18:00,
2018-01-22 04:19:00,54.0,53.5,30.00,SSE,163,1.0,4.0,98,0.00,,,0.00,VWS V12.08,2018-01-22 10:19:00,
2018-01-22 04:20:00,54.4,53.8,30.00,SE,130,2.0,4.0,98,0.00,,,0.00,VWS V12.08,2018-01-22 10:20:00,
2018-01-22 04:21:00,54.7,54.2,30.00,SE,130,2.0,4.0,98,0.00,,,0.00,VWS V12.08,2018-01-22 10:21:00,
2018-01-22 04:22:00,55.1,54.5,30.00,SE,129,3.0,4.0,98,0.00,,,0.00,VWS V12.08,2018-01-22 10:22:00,
2018-01-22 04:23:00,55.3,54.8,30.00,SE,129,2.0,4.0,98,0.00,,,0.00,VWS V12.08,2018-01-22 10:23:00,
2018-01-22 04:24:00,55.5,55.0,30.00,SE,129,2.0,4.0,98,0.00,,,0.00,VWS V12.08,2018-01-22 10:24:00,
2018-01-22 04:25:00,55.8,55.2,30.00,SE,129,3.0,4.0,98,0.00,,,0.00,VWS V12.08,2018-01-22 10:25:00,
2018-01-22 04:26:00,56.0,55.5,30.00,SE,133,3.0,5.0,98,0.00,,,0.00,VWS V12.08,2018-01-22 10:26:00,
2018-01-22 04:27:00,56.2,55.7,30.00,SE,133,2.0,5.0,98,0.00,,,0.00,VWS V12.08,2018-01-22 10:27:00,
2018-01-22 04:28:00,56.4,55.6,30.00,SE,136,4.0,5.0,97,0.00,,,0.00,VWS V12.08,2018-01-22 10:28:00,
2018-01-22 04:29:00,56.5,55.7,30.00,SE,134,1.0,5.0,97,0.00,,,0.00,VWS V12.08,2018-01-22 10:29:00,
2018-01-22 04:30:00,56.6,55.8,30.00,SE,134,1.0,5.0,97,0.00,,,0.00,VWS V12.08,2018-01-22 10:30:00,
2018-01-22 04:31:00,56.7,55.9,30.00,SE,134,0.0,3.0,97,0.00,,,0.00,VWS V12.08,2018-01-22 10:31:00,
2018-01-22 04:32:00,56.8,56.0,30.00,SE,134,2.0,3.0,97,0.00,,,0.00,VWS V12.08,2018-01-22 10:32:00,
2018-01-22 04:33:00,56.8,56.0,30.00,SE,134,1.0,3.0,97,0.00,,,0.00,VWS V12.08,2018-01-22 10:33:00,
2018-01-22 04:34:00,56.9,55.8,30.00,SE,134,2.0,3.0,96,0.00,,,0.00,VWS V12.08,2018-01-22 10:34:00,
2018-01-22 04:35:00,57.0,55.9,30.00,SE,128,3.0,4.0,96,0.00,,,0.00,VWS V12.08,2018-01-22 10:35:00,
2018-01-22 04:36:00,57.1,56.0,30.00,SE,132,1.0,4.0,96,0.00,,,0.00,VWS V12.08,2018-01-22 10:36:00,
2018-01-22 04:37:00,57.2,56.1,30.00,SE,132,1.0,4.0,96,0.00,,,0.00,VWS V12.08,2018-01-22 10:37:00,
2018-01-22 04:38:00,57.2,56.1,30.00,SE,131,1.0,4.0,96,0.00,,,0.00,VWS V12.08,2018-01-22 10:38:00,
2018-01-22 04:39:00,57.3,56.2,30.00,SE,129,3.0,4.0,96,0.00,,,0.00,VWS V12.08,2018-01-22 10:39:00,
2018-01-22 04:40:00,57.4,56.3,30.00,SE,142,4.0,4.0,96,0.00,,,0.00,VWS V12.08,2018-01-22 10:40:00,
2018-01-22 04:41:00,57.5,56.4,30.00,SE,136,0.0,7.0,96,0.00,,,0.00,VWS V12.08,2018-01-22 10:41:00,
2018-01-22 04:42:00,57.5,56.1,30.00,SE,136,1.0,7.0,95,0.00,,,0.00,VWS V12.08,2018-01-22 10:42:00,
2018-01-22 04:43:00,57.6,56.2,30.01,SE,136,0.0,7.0,95,0.00,,,0.00,VWS V12.08,2018-01-22 10:43:00,
2018-01-22 04:44:00,57.6,56.2,30.01,SE,136,2.0,7.0,95,0.00,,,0.00,VWS V12.08,2018-01-22 10:44:00,
2018-01-22 04:45:00,57.7,56.3,30.01,SE,136,3.0,7.0,95,0.00,,,0.00,VWS V12.08,2018-01-22 10:45:00,
2018-01-22 04:46:00,57.7,56.3,30.01,SE,136,0.0,7.0,95,0.00,,,0.00,VWS V12.08,2018-01-22 10:46:00,
2018-01-22 04:47:00,57.7,56.3,30.01,SE,136,2.0,7.0,95,0.00,,,0.00,VWS V12.08,2018-01-22 10:47:00,
2018-01-22 04:48:00,57.7,56.3,30.01,SE,144,3.0,7.0,95,0.00,,,0.00,VWS V12.08,2018-01-22 10:48:00,
2018-01-22 04:49:00,57.8,56.4,30.01,SE,142,3.0,7.0,95,0.00,,,0.00,VWS V12.08,2018-01-22 10:49:00,
2018-01-22 04:50:00,57.8,56.4,30.01,SE,142,4.0,7.0,95,0.00,,,0.00,VWS V12.08,2018-01-22 10:50:00,
2018-01-22 04:51:00,57.9,56.2,30.01,SE,130,1.0,7.0,94,0.00,,,0.00,VWS V12.08,2018-01-22 10:51:00,
2018-01-22 04:52:00,57.9,56.2,30.01,SE,130,2.0,7.0,94,0.00,,,0.00,VWS V12.08,2018-01-22 10:52:00,
2018-01-22 04:53:00,57.9,56.2,30.00,SE,136,2.0,7.0,94,0.00,,,0.00,VWS V12.08,2018-01-22 10:53:00,
2018-01-22 04:54:00,57.9,56.2,30.00,SE,128,3.0,7.0,94,0.00,,,0.00,VWS V12.08,2018-01-22 10:54:00,
2018-01-22 04:55:00,58.0,56.3,30.00,SE,128,2.0,7.0,94,0.00,,,0.00,VWS V12.08,2018-01-22 10:55:00,
2018-01-22 04:56:00,58.1,56.4,30.00,SE,133,3.0,7.0,94,0.00,,,0.00,VWS V12.08,2018-01-22 10:56:00,
2018-01-22 04:57:00,58.1,56.4,30.00,SE,133,3.0,7.0,94,0.00,,,0.00,VWS V12.08,2018-01-22 10:57:00,
2018-01-22 04:58:00,58.1,56.4,30.01,SE,132,1.0,7.0,94,0.00,,,0.00,VWS V12.08,2018-01-22 10:58:00,
2018-01-22 04:59:00,58.2,56.5,30.00,SE,146,2.0,8.0,94,0.00,,,0.00,VWS V12.08,2018-01-22 10:59:00,
2018-01-22 05:00:00,58.2,56.5,30.01,SE,146,1.0,8.0,94,0.00,,,0.00,VWS V12.08,2018-01-22 11:00:00,
2018-01-22 05:01:00,58.3,56.3,30.01,SE,146,1.0,3.0,93,0.00,,,0.00,VWS V12.08,2018-01-22 11:01:00,
2018-01-22 05:02:00,58.3,56.3,30.01,SE,136,3.0,5.0,93,0.00,,,0.00,VWS V12.08,2018-01-22 11:02:00,
2018-01-22 05:03:00,58.3,56.3,30.01,SE,136,3.0,5.0,93,0.00,,,0.00,VWS V12.08,2018-01-22 11:03:00,
2018-01-22 05:04:00,58.4,56.4,30.01,SE,135,3.0,5.0,93,0.00,,,0.00,VWS V12.08,2018-01-22 11:04:00,
2018-01-22 05:05:00,58.5,56.5,30.01,SE,137,7.0,8.0,93,0.00,,,0.00,VWS V12.08,2018-01-22 11:05:00,
2018-01-22 05:06:00,58.6,56.6,30.01,SE,143,4.0,8.0,93,0.00,,,0.00,VWS V12.08,2018-01-22 11:06:00,
2018-01-22 05:07:00,58.6,56.6,30.01,SSE,149,2.0,8.0,93,0.00,,,0.00,VWS V12.08,2018-01-22 11:07:00,
2018-01-22 05:08:00,58.6,56.6,30.01,ESE,106,3.0,8.0,93,0.00,,,0.00,VWS V12.08,2018-01-22 11:08:00,
2018-01-22 05:09:00,58.7,56.7,30.01,SE,133,2.0,8.0,93,0.00,,,0.00,VWS V12.08,2018-01-22 11:09:00,
2018-01-22 05:10:00,58.7,56.7,30.01,ESE,115,0.0,8.0,93,0.00,,,0.00,VWS V12.08,2018-01-22 11:10:00,
2018-01-22 05:11:00,58.8,56.8,30.01,SE,139,3.0,8.0,93,0.00,,,0.00,VWS V12.08,2018-01-22 11:11:00,
2018-01-22 05:12:00,58.8,56.8,30.01,SE,128,3.0,8.0,93,0.00,,,0.00,VWS V12.08,2018-01-22 11:12:00,
2018-01-22 05:13:00,58.9,56.6,30.01,SE,126,0.0,8.0,92,0.00,,,0.00,VWS V12.08,2018-01-22 11:13:00,
2018-01-22 05:14:00,58.9,56.6,30.01,ESE,119,1.0,8.0,92,0.00,,,0.00,VWS V12.08,2018-01-22 11:14:00,
2018-01-22 05:15:00,58.9,56.6,30.00,SE,126,2.0,8.0,92,0.00,,,0.00,VWS V12.08,2018-01-22 11:15:00,
2018-01-22 05:16:00,58.9,56.6,30.00,SE,134,2.0,8.0,92,0.00,,,0.00,VWS V12.08,2018-01-22 11:16:00,
2018-01-22 05:17:00,58.9,56.6,30.00,SE,126,3.0,8.0,92,0.00,,,0.00,VWS V12.08,2018-01-22 11:17:00,
2018-01-22 05:18:00,58.9,56.6,30.00,ESE,121,4.0,8.0,92,0.00,,,0.00,VWS V12.08,2018-01-22 11:18:00,
2018-01-22 05:19:00,59.0,56.7,30.00,ESE,116,2.0,8.0,92,0.00,,,0.00,VWS V12.08,2018-01-22 11:19:00,
2018-01-22 05:20:00,59.0,56.7,30.00,SE,145,3.0,8.0,92,0.00,,,0.00,VWS V12.08,2018-01-22 11:20:00,
2018-01-22 05:21:00,59.0,56.7,30.00,SE,131,2.0,8.0,92,0.00,,,0.00,VWS V12.08,2018-01-22 11:21:00,
2018-01-22 05:22:00,59.1,56.8,30.00,SE,128,2.0,8.0,92,0.00,,,0.00,VWS V12.08,2018-01-22 11:22:00,
2018-01-22 05:23:00,59.0,56.7,30.01,SE,128,0.0,8.0,92,0.00,,,0.00,VWS V12.08,2018-01-22 11:23:00,
2018-01-22 05:24:00,59.1,56.8,30.01,SW,215,1.0,8.0,92,0.00,,,0.00,VWS V12.08,2018-01-22 11:24:00,
2018-01-22 05:25:00,59.0,56.7,30.01,SE,140,1.0,8.0,92,0.00,,,0.00,VWS V12.08,2018-01-22 11:25:00,
2018-01-22 05:26:00,59.0,56.7,30.01,South,177,2.0,8.0,92,0.00,,,0.00,VWS V12.08,2018-01-22 11:26:00,
2018-01-22 05:27:00,59.0,56.7,30.01,SE,144,4.0,8.0,92,0.00,,,0.00,VWS V12.08,2018-01-22 11:27:00,
2018-01-22 05:28:00,59.0,56.7,30.01,SE,134,1.0,8.0,92,0.00,,,0.00,VWS V12.08,2018-01-22 11:28:00,
2018-01-22 05:29:00,59.0,56.7,30.01,SE,144,1.0,8.0,92,0.00,,,0.00,VWS V12.08,2018-01-22 11:29:00,
2018-01-22 05:30:00,59.0,56.7,30.01,SE,138,3.0,8.0,92,0.00,,,0.00,VWS V12.08,2018-01-22 11:30:00,
2018-01-22 05:31:00,59.0,56.7,30.01,SE,128,0.0,8.0,92,0.00,,,0.00,VWS V12.08,2018-01-22 11:31:00,
2018-01-22 05:32:00,59.0,56.7,30.01,SE,130,2.0,8.0,92,0.00,,,0.00,VWS V12.08,2018-01-22 11:32:00,
2018-01-22 05:33:00,59.0,56.7,30.01,SE,127,2.0,8.0,92,0.00,,,0.00,VWS V12.08,2018-01-22 11:33:00,
2018-01-22 05:34:00,58.9,56.6,30.01,SE,124,2.0,8.0,92,0.00,,,0.00,VWS V12.08,2018-01-22 11:34:00,
2018-01-22 05:35:00,58.9,56.6,30.01,SE,130,2.0,8.0,92,0.00,,,0.00,VWS V12.08,2018-01-22 11:35:00,
2018-01-22 05:36:00,59.0,56.7,30.01,SE,144,5.0,8.0,92,0.00,,,0.00,VWS V12.08,2018-01-22 11:36:00,
2018-01-22 05:37:00,59.0,56.7,30.01,SE,135,2.0,9.0,92,0.00,,,0.00,VWS V12.08,2018-01-22 11:37:00,
2018-01-22 05:38:00,59.0,56.7,30.01,SE,133,2.0,9.0,92,0.00,,,0.00,VWS V12.08,2018-01-22 11:38:00,
2018-01-22 05:39:00,59.0,56.7,30.01,SE,126,1.0,9.0,92,0.00,,,0.00,VWS V12.08,2018-01-22 11:39:00,
2018-01-22 05:40:00,59.0,56.7,30.01,SSE,147,3.0,9.0,92,0.00,,,0.00,VWS V12.08,2018-01-22 11:40:00,
2018-01-22 05:41:00,59.0,56.7,30.01,SE,140,3.0,9.0,92,0.00,,,0.00,VWS V12.08,2018-01-22 11:41:00,
2018-01-22 05:42:00,59.0,56.7,30.01,SE,136,0.0,9.0,92,0.00,,,0.00,VWS V12.08,2018-01-22 11:42:00,
2018-01-22 05:43:00,59.0,56.7,30.01,ESE,121,2.0,9.0,92,0.00,,,0.00,VWS V12.08,2018-01-22 11:43:00,
2018-01-22 05:44:00,59.0,56.7,30.01,ESE,117,1.0,9.0,92,0.00,,,0.00,VWS V12.08,2018-01-22 11:44:00,
2018-01-22 05:45:00,59.0,56.7,30.01,SE,124,2.0,9.0,92,0.00,,,0.00,VWS V12.08,2018-01-22 11:45:00,
2018-01-22 05:46:00,58.9,56.6,30.01,ESE,118,1.0,9.0,92,0.00,,,0.00,VWS V12.08,2018-01-22 11:46:00,
2018-01-22 05:47:00,58.9,56.6,30.01,ESE,117,0.0,9.0,92,0.00,,,0.00,VWS V12.08,2018-01-22 11:47:00,
2018-01-22 05:48:00,58.9,56.6,30.01,SE,138,2.0,9.0,92,0.00,,,0.00,VWS V12.08,2018-01-22 11:48:00,
2018-01-22 05:49:00,58.9,56.6,30.01,SE,132,0.0,9.0,92,0.00,,,0.00,VWS V12.08,2018-01-22 11:49:00,
2018-01-22 05:50:00,58.9,56.6,30.01,SE,130,0.0,9.0,92,0.00,,,0.00,VWS V12.08,2018-01-22 11:50:00,
2018-01-22 05:51:00,58.9,56.6,30.01,SE,132,2.0,9.0,92,0.00,,,0.00,VWS V12.08,2018-01-22 11:51:00,
2018-01-22 05:52:00,58.9,56.6,30.01,SE,135,2.0,9.0,92,0.00,,,0.00,VWS V12.08,2018-01-22 11:52:00,
2018-01-22 05:53:00,58.9,56.6,30.01,SE,130,0.0,9.0,92,0.00,,,0.00,VWS V12.08,2018-01-22 11:53:00,
2018-01-22 05:54:00,58.9,56.6,30.01,SE,127,3.0,9.0,92,0.00,,,0.00,VWS V12.08,2018-01-22 11:54:00,
2018-01-22 05:55:00,59.0,57.0,30.01,SE,136,4.0,9.0,93,0.00,,,0.00,VWS V12.08,2018-01-22 11:55:00,
2018-01-22 05:56:00,59.0,57.0,30.01,SE,130,3.0,9.0,93,0.00,,,0.00,VWS V12.08,2018-01-22 11:56:00,
2018-01-22 05:57:00,59.0,57.0,30.01,SE,130,3.0,9.0,93,0.00,,,0.00,VWS V12.08,2018-01-22 11:57:00,
2018-01-22 05:58:00,59.1,57.1,30.01,SE,142,3.0,9.0,93,0.00,,,0.00,VWS V12.08,2018-01-22 11:58:00,
2018-01-22 05:59:00,59.1,57.1,30.01,SE,129,2.0,9.0,93,0.00,,,0.00,VWS V12.08,2018-01-22 11:59:00,
2018-01-22 06:00:00,59.2,57.2,30.01,SE,134,4.0,9.0,93,0.00,,,0.00,VWS V12.08,2018-01-22 12:00:00,
2018-01-22 06:01:00,59.1,57.1,30.01,ESE,123,0.0,5.0,93,0.00,,,0.00,VWS V12.08,2018-01-22 12:01:00,
2018-01-22 06:02:00,59.1,57.1,30.01,SE,130,0.0,5.0,93,0.00,,,0.00,VWS V12.08,2018-01-22 12:02:00,
2018-01-22 06:03:00,59.2,57.2,30.01,ESE,121,4.0,8.0,93,0.00,,,0.00,VWS V12.08,2018-01-22 12:03:00,
2018-01-22 06:04:00,59.2,57.2,30.01,SSE,150,3.0,8.0,93,0.00,,,0.00,VWS V12.08,2018-01-22 12:04:00,
2018-01-22 06:05:00,59.2,57.2,30.01,SE,126,1.0,8.0,93,0.00,,,0.00,VWS V12.08,2018-01-22 12:05:00,
2018-01-22 06:06:00,59.3,57.3,30.01,ESE,123,3.0,8.0,93,0.00,,,0.00,VWS V12.08,2018-01-22 12:06:00,
2018-01-22 06:07:00,59.2,57.2,30.01,ESE,120,3.0,8.0,93,0.00,,,0.00,VWS V12.08,2018-01-22 12:07:00,
2018-01-22 06:08:00,59.3,57.3,30.02,SSE,154,4.0,8.0,93,0.00,,,0.00,VWS V12.08,2018-01-22 12:08:00,
2018-01-22 06:09:00,59.3,57.3,30.02,SE,146,3.0,8.0,93,0.00,,,0.00,VWS V12.08,2018-01-22 12:09:00,
2018-01-22 06:10:00,59.3,57.3,30.02,SE,136,2.0,8.0,93,0.00,,,0.00,VWS V12.08,2018-01-22 12:10:00,
2018-01-22 06:11:00,59.3,57.3,30.02,SSE,149,4.0,8.0,93,0.00,,,0.00,VWS V12.08,2018-01-22 12:11:00,
2018-01-22 06:12:00,59.4,57.4,30.02,SE,138,4.0,8.0,93,0.00,,,0.00,VWS V12.08,2018-01-22 12:12:00,
2018-01-22 06:13:00,59.4,57.4,30.02,SE,130,2.0,8.0,93,0.00,,,0.00,VWS V12.08,2018-01-22 12:13:00,
2018-01-22 06:14:00,59.4,57.4,30.02,SE,140,4.0,8.0,93,0.00,,,0.00,VWS V12.08,2018-01-22 12:14:00,
2018-01-22 06:15:00,59.4,57.4,30.02,ESE,121,3.0,8.0,93,0.00,,,0.00,VWS V12.08,2018-01-22 12:15:00,
2018-01-22 06:16:00,59.4,57.4,30.02,SSE,148,2.0,8.0,93,0.00,,,0.00,VWS V12.08,2018-01-22 12:16:00,
2018-01-22 06:17:00,59.4,57.4,30.02,SE,130,3.0,8.0,93,0.00,,,0.00,VWS V12.08,2018-01-22 12:17:00,
2018-01-22 06:18:00,59.4,57.4,30.02,SE,132,0.0,8.0,93,0.00,,,0.00,VWS V12.08,2018-01-22 12:18:00,
2018-01-22 06:19:00,59.5,57.5,30.02,SE,132,0.0,8.0,93,0.00,,,0.00,VWS V12.08,2018-01-22 12:19:00,
2018-01-22 06:20:00,59.5,57.5,30.02,SE,127,2.0,8.0,93,0.00,,,0.00,VWS V12.08,2018-01-22 12:20:00,
2018-01-22 06:21:00,59.5,57.5,30.02,SE,130,1.0,8.0,93,0.00,,,0.00,VWS V12.08,2018-01-22 12:21:00,
2018-01-22 06:22:00,59.5,57.5,30.02,SE,125,0.0,8.0,93,0.00,,,0.00,VWS V12.08,2018-01-22 12:22:00,
2018-01-22 06:23:00,59.5,57.5,30.02,SE,130,1.0,8.0,93,0.00,,,0.00,VWS V12.08,2018-01-22 12:23:00,
2018-01-22 06:24:00,59.6,57.6,30.02,SE,136,0.0,8.0,93,0.00,,,0.00,VWS V12.08,2018-01-22 12:24:00,
2018-01-22 06:25:00,59.6,57.6,30.02,SE,146,3.0,8.0,93,0.00,,,0.00,VWS V12.08,2018-01-22 12:25:00,
2018-01-22 06:26:00,59.5,57.5,30.02,SE,128,3.0,8.0,93,0.00,,,0.00,VWS V12.08,2018-01-22 12:26:00,
2018-01-22 06:27:00,59.6,57.6,30.02,SE,138,0.0,8.0,93,0.00,,,0.00,VWS V12.08,2018-01-22 12:27:00,
2018-01-22 06:28:00,59.6,57.6,30.02,SE,134,1.0,8.0,93,0.00,,,0.00,VWS V12.08,2018-01-22 12:28:00,
2018-01-22 06:29:00,59.6,57.6,30.02,SE,134,0.0,8.0,93,0.00,,,0.00,VWS V12.08,2018-01-22 12:29:00,
2018-01-22 06:30:00,59.6,57.6,30.02,SE,129,0.0,0.0,93,0.00,,,0.00,VWS V12.08,2018-01-22 12:30:00,
2018-01-22 06:31:00,59.6,57.6,30.02,SE,129,0.0,0.0,93,0.00,,,0.00,VWS V12.08,2018-01-22 12:31:00,
2018-01-22 06:32:00,59.6,57.6,30.02,SE,128,0.0,0.0,93,0.00,,,0.00,VWS V12.08,2018-01-22 12:32:00,
2018-01-22 06:33:00,59.6,57.6,30.03,SE,126,2.0,3.0,93,0.00,,,0.00,VWS V12.08,2018-01-22 12:33:00,
2018-01-22 06:34:00,59.6,57.6,30.03,SE,137,3.0,3.0,93,0.00,,,0.00,VWS V12.08,2018-01-22 12:34:00,
2018-01-22 06:35:00,59.6,57.9,30.03,ESE,114,3.0,3.0,94,0.00,,,0.00,VWS V12.08,2018-01-22 12:35:00,
2018-01-22 06:36:00,59.7,58.0,30.03,SE,130,0.0,3.0,94,0.00,,,0.00,VWS V12.08,2018-01-22 12:36:00,
2018-01-22 06:37:00,59.7,58.0,30.03,SE,126,2.0,3.0,94,0.00,,,0.00,VWS V12.08,2018-01-22 12:37:00,
2018-01-22 06:38:00,59.7,58.0,30.02,SE,146,2.0,3.0,94,0.00,,,0.00,VWS V12.08,2018-01-22 12:38:00,
2018-01-22 06:39:00,59.8,58.1,30.02,ESE,123,1.0,4.0,94,0.00,,,0.00,VWS V12.08,2018-01-22 12:39:00,
2018-01-22 06:40:00,59.7,58.0,30.02,SE,130,0.0,4.0,94,0.00,,,0.00,VWS V12.08,2018-01-22 12:40:00,
2018-01-22 06:41:00,59.8,58.1,30.02,ESE,115,0.0,4.0,94,0.00,,,0.00,VWS V12.08,2018-01-22 12:41:00,
2018-01-22 06:42:00,59.8,57.8,30.02,SE,130,1.0,4.0,93,0.00,,,0.00,VWS V12.08,2018-01-22 12:42:00,
2018-01-22 06:43:00,59.7,57.7,30.02,SE,132,0.0,4.0,93,0.00,,,0.00,VWS V12.08,2018-01-22 12:43:00,
2018-01-22 06:44:00,59.8,58.1,30.03,SE,135,3.0,4.0,94,0.00,,,0.00,VWS V12.08,2018-01-22 12:44:00,
2018-01-22 06:45:00,59.8,58.1,30.03,SE,135,3.0,5.0,94,0.00,,,0.00,VWS V12.08,2018-01-22 12:45:00,
2018-01-22 06:46:00,59.8,58.1,30.03,SE,130,3.0,5.0,94,0.00,,,0.00,VWS V12.08,2018-01-22 12:46:00,
2018-01-22 06:47:00,59.8,58.1,30.03,SE,128,2.0,5.0,94,0.00,,,0.00,VWS V12.08,2018-01-22 12:47:00,
2018-01-22 06:48:00,59.9,58.2,30.03,ESE,120,3.0,5.0,94,0.00,,,0.00,VWS V12.08,2018-01-22 12:48:00,
2018-01-22 06:49:00,59.9,58.2,30.02,ESE,110,1.0,5.0,94,0.00,,,0.00,VWS V12.08,2018-01-22 12:49:00,
2018-01-22 06:50:00,59.9,58.2,30.02,SE,125,3.0,5.0,94,0.00,,,0.00,VWS V12.08,2018-01-22 12:50:00,
2018-01-22 06:51:00,59.9,58.2,30.02,SE,136,2.0,5.0,94,0.00,,,0.00,VWS V12.08,2018-01-22 12:51:00,
2018-01-22 06:52:00,60.0,58.3,30.02,SE,128,0.0,5.0,94,0.00,,,0.00,VWS V12.08,2018-01-22 12:52:00,
2018-01-22 06:53:00,60.0,58.3,30.02,SSE,163,1.0,5.0,94,0.00,,,0.00,VWS V12.08,2018-01-22 12:53:00,
2018-01-22 06:54:00,60.0,58.3,30.02,SE,126,3.0,5.0,94,0.00,,,0.00,VWS V12.08,2018-01-22 12:54:00,
2018-01-22 06:55:00,60.1,58.4,30.02,ESE,112,0.0,5.0,94,0.00,,,0.00,VWS V12.08,2018-01-22 12:55:00,
2018-01-22 06:56:00,60.1,58.4,30.03,ESE,122,0.0,5.0,94,0.00,,,0.00,VWS V12.08,2018-01-22 12:56:00,
2018-01-22 06:57:00,60.2,58.5,30.02,ESE,123,1.0,5.0,94,0.00,,,0.00,VWS V12.08,2018-01-22 12:57:00,
2018-01-22 06:58:00,60.1,58.4,30.03,ESE,109,2.0,9.0,94,0.00,,,0.00,VWS V12.08,2018-01-22 12:58:00,
2018-01-22 06:59:00,60.2,58.5,30.03,SE,131,1.0,9.0,94,0.00,,,0.00,VWS V12.08,2018-01-22 12:59:00,
2018-01-22 07:00:00,60.2,58.5,30.03,SE,132,0.0,9.0,94,0.00,,,0.00,VWS V12.08,2018-01-22 13:00:00,
2018-01-22 07:01:00,60.2,58.5,30.03,SE,128,1.0,2.0,94,0.00,,,0.00,VWS V12.08,2018-01-22 13:01:00,
2018-01-22 07:02:00,60.2,58.5,30.03,ESE,123,2.0,4.0,94,0.00,,,0.00,VWS V12.08,2018-01-22 13:02:00,
2018-01-22 07:03:00,60.3,58.6,30.03,SE,132,2.0,4.0,94,0.00,,,0.00,VWS V12.08,2018-01-22 13:03:00,
2018-01-22 07:04:00,60.3,58.6,30.02,SSE,150,5.0,5.0,94,0.00,,,0.00,VWS V12.08,2018-01-22 13:04:00,
2018-01-22 07:05:00,60.3,58.6,30.02,ESE,122,0.0,5.0,94,0.00,,,0.00,VWS V12.08,2018-01-22 13:05:00,
2018-01-22 07:06:00,60.3,58.6,30.02,ESE,121,0.0,5.0,94,0.00,,,0.00,VWS V12.08,2018-01-22 13:06:00,
2018-01-22 07:07:00,60.3,58.6,30.02,SSE,154,0.0,5.0,94,0.00,,,0.00,VWS V12.08,2018-01-22 13:07:00,
2018-01-22 07:08:00,60.4,58.7,30.02,SSE,165,5.0,5.0,94,0.00,,,0.00,VWS V12.08,2018-01-22 13:08:00,
2018-01-22 07:09:00,60.4,58.7,30.02,ESE,117,3.0,5.0,94,0.00,,,0.00,VWS V12.08,2018-01-22 13:09:00,
2018-01-22 07:10:00,60.5,58.8,30.02,SE,132,0.0,5.0,94,0.00,,,0.00,VWS V12.08,2018-01-22 13:10:00,
2018-01-22 07:11:00,60.5,58.8,30.02,ESE,118,0.0,5.0,94,0.00,,,0.00,VWS V12.08,2018-01-22 13:11:00,
2018-01-22 07:12:00,60.5,58.8,30.03,ESE,119,2.0,5.0,94,0.00,,,0.00,VWS V12.08,2018-01-22 13:12:00,
2018-01-22 07:13:00,60.5,58.8,30.03,SE,131,1.0,5.0,94,0.00,,,0.00,VWS V12.08,2018-01-22 13:13:00,
2018-01-22 07:14:00,60.6,58.9,30.03,ESE,110,2.0,5.0,94,0.00,,,0.00,VWS V12.08,2018-01-22 13:14:00,
2018-01-22 07:15:00,60.6,58.9,30.03,SE,129,1.0,5.0,94,0.00,,,0.00,VWS V12.08,2018-01-22 13:15:00,
2018-01-22 07:16:00,60.7,59.0,30.03,SE,127,3.0,5.0,94,0.00,,,0.00,VWS V12.08,2018-01-22 13:16:00,
2018-01-22 07:17:00,60.6,58.9,30.03,ESE,108,1.0,5.0,94,0.00,,,0.00,VWS V12.08,2018-01-22 13:17:00,
2018-01-22 07:18:00,60.6,58.9,30.03,SE,129,1.0,5.0,94,0.00,,,0.00,VWS V12.08,2018-01-22 13:18:00,
2018-01-22 07:19:00,60.7,59.0,30.03,ESE,107,3.0,5.0,94,0.00,,,0.00,VWS V12.08,2018-01-22 13:19:00,
2018-01-22 07:20:00,60.6,58.9,30.03,SE,144,4.0,5.0,94,0.00,,,0.00,VWS V12.08,2018-01-22 13:20:00,
2018-01-22 07:21:00,60.7,59.0,30.03,SE,143,2.0,5.0,94,0.00,,,0.00,VWS V12.08,2018-01-22 13:21:00,
2018-01-22 07:22:00,60.6,58.9,30.03,ESE,123,1.0,5.0,94,0.00,,,0.00,VWS V12.08,2018-01-22 13:22:00,
2018-01-22 07:23:00,60.6,58.9,30.03,SSE,156,0.0,5.0,94,0.00,,,0.00,VWS V12.08,2018-01-22 13:23:00,
2018-01-22 07:24:00,60.7,59.0,30.03,SSE,152,2.0,5.0,94,0.00,,,0.00,VWS V12.08,2018-01-22 13:24:00,
2018-01-22 07:25:00,60.7,59.0,30.03,SE,146,0.0,5.0,94,0.00,,,0.00,VWS V12.08,2018-01-22 13:25:00,
2018-01-22 07:26:00,60.7,59.0,30.03,ESE,121,3.0,5.0,94,0.00,,,0.00,VWS V12.08,2018-01-22 13:26:00,
2018-01-22 07:27:00,60.7,59.0,30.03,SE,130,2.0,5.0,94,0.00,,,0.00,VWS V12.08,2018-01-22 13:27:00,
2018-01-22 07:28:00,60.7,59.0,30.03,SE,133,3.0,5.0,94,0.00,,,0.00,VWS V12.08,2018-01-22 13:28:00,
2018-01-22 07:29:00,60.7,59.0,30.03,SE,132,1.0,5.0,94,0.00,,,0.00,VWS V12.08,2018-01-22 13:29:00,
2018-01-22 07:30:00,60.7,59.0,30.03,SSE,147,4.0,5.0,94,0.00,,,0.00,VWS V12.08,2018-01-22 13:30:00,
2018-01-22 07:31:00,60.6,58.9,30.03,SE,127,3.0,5.0,94,0.00,,,0.00,VWS V12.08,2018-01-22 13:31:00,
2018-01-22 07:32:00,60.6,58.9,30.03,SSE,153,1.0,5.0,94,0.00,,,0.00,VWS V12.08,2018-01-22 13:32:00,
2018-01-22 07:33:00,60.6,58.9,30.03,SE,131,4.0,5.0,94,0.00,,,0.00,VWS V12.08,2018-01-22 13:33:00,
2018-01-22 07:34:00,60.6,58.9,30.03,SSE,156,5.0,5.0,94,0.00,,,0.00,VWS V12.08,2018-01-22 13:34:00,
2018-01-22 07:35:00,60.6,58.9,30.03,SE,128,3.0,5.0,94,0.00,,,0.00,VWS V12.08,2018-01-22 13:35:00,
2018-01-22 07:36:00,60.6,58.9,30.03,SE,140,3.0,5.0,94,0.00,,,0.00,VWS V12.08,2018-01-22 13:36:00,
2018-01-22 07:37:00,60.6,58.9,30.03,SE,136,0.0,5.0,94,0.00,,,0.00,VWS V12.08,2018-01-22 13:37:00,
2018-01-22 07:38:00,60.6,58.9,30.04,SE,130,0.0,5.0,94,0.00,,,0.00,VWS V12.08,2018-01-22 13:38:00,
2018-01-22 07:39:00,60.6,58.9,30.04,SE,136,2.0,5.0,94,0.00,,,0.00,VWS V12.08,2018-01-22 13:39:00,
2018-01-22 07:40:00,60.6,58.9,30.04,SE,136,0.0,5.0,94,0.00,,,0.00,VWS V12.08,2018-01-22 13:40:00,
2018-01-22 07:41:00,60.6,58.9,30.04,SE,136,0.0,5.0,94,0.00,,,0.00,VWS V12.08,2018-01-22 13:41:00,
2018-01-22 07:42:00,60.6,58.9,30.04,ESE,123,0.0,5.0,94,0.00,,,0.00,VWS V12.08,2018-01-22 13:42:00,
2018-01-22 07:43:00,60.6,58.9,30.04,SE,136,2.0,5.0,94,0.00,,,0.00,VWS V12.08,2018-01-22 13:43:00,
2018-01-22 07:44:00,60.6,58.9,30.04,SE,137,4.0,5.0,94,0.00,,,0.00,VWS V12.08,2018-01-22 13:44:00,
2018-01-22 07:45:00,60.7,59.0,30.04,SE,144,0.0,5.0,94,0.00,,,0.00,VWS V12.08,2018-01-22 13:45:00,
2018-01-22 07:46:00,60.7,59.0,30.04,SE,126,2.0,5.0,94,0.00,,,0.00,VWS V12.08,2018-01-22 13:46:00,
2018-01-22 07:47:00,60.7,59.0,30.04,SSE,154,3.0,5.0,94,0.00,,,0.00,VWS V12.08,2018-01-22 13:47:00,
2018-01-22 07:48:00,60.6,58.9,30.04,ESE,123,3.0,5.0,94,0.00,,,0.00,VWS V12.08,2018-01-22 13:48:00,
2018-01-22 07:49:00,60.7,59.0,30.04,SE,134,3.0,5.0,94,0.00,,,0.00,VWS V12.08,2018-01-22 13:49:00,
2018-01-22 07:50:00,60.7,59.0,30.04,SE,142,3.0,5.0,94,0.00,,,0.00,VWS V12.08,2018-01-22 13:50:00,
2018-01-22 07:51:00,60.7,59.0,30.04,SE,137,5.0,7.0,94,0.00,,,0.00,VWS V12.08,2018-01-22 13:51:00,
2018-01-22 07:52:00,60.7,59.0,30.04,SE,134,4.0,7.0,94,0.00,,,0.00,VWS V12.08,2018-01-22 13:52:00,
2018-01-22 07:53:00,60.8,59.1,30.04,SSE,149,5.0,7.0,94,0.00,,,0.00,VWS V12.08,2018-01-22 13:53:00,
2018-01-22 07:54:00,60.7,59.0,30.04,SE,136,3.0,7.0,94,0.00,,,0.00,VWS V12.08,2018-01-22 13:54:00,
2018-01-22 07:55:00,60.8,59.1,30.04,ESE,121,2.0,7.0,94,0.00,,,0.00,VWS V12.08,2018-01-22 13:55:00,
2018-01-22 07:56:00,60.7,59.0,30.04,SE,126,3.0,7.0,94,0.00,,,0.00,VWS V12.08,2018-01-22 13:56:00,
2018-01-22 07:57:00,60.7,59.0,30.04,SE,130,0.0,7.0,94,0.00,,,0.00,VWS V12.08,2018-01-22 13:57:00,
2018-01-22 07:58:00,60.8,59.1,30.04,SE,130,0.0,7.0,94,0.00,,,0.00,VWS V12.08,2018-01-22 13:58:00,
2018-01-22 07:59:00,60.8,59.1,30.04,SE,130,0.0,7.0,94,0.00,,,0.00,VWS V12.08,2018-01-22 13:59:00,
2018-01-22 08:00:00,60.8,59.1,30.04,SE,142,3.0,7.0,94,0.00,,,0.00,VWS V12.08,2018-01-22 14:00:00,
2018-01-22 08:01:00,60.9,59.2,30.04,SSE,155,3.0,3.0,94,0.00,,,0.00,VWS V12.08,2018-01-22 14:01:00,
2018-01-22 08:02:00,60.9,59.2,30.04,SE,145,2.0,4.0,94,0.00,,,0.00,VWS V12.08,2018-01-22 14:02:00,
2018-01-22 08:03:00,60.9,59.2,30.04,SE,129,3.0,5.0,94,0.00,,,0.00,VWS V12.08,2018-01-22 14:03:00,
2018-01-22 08:04:00,60.9,59.2,30.04,SSE,148,3.0,5.0,94,0.00,,,0.00,VWS V12.08,2018-01-22 14:04:00,
2018-01-22 08:05:00,60.9,59.2,30.04,ESE,123,4.0,5.0,94,0.00,,,0.00,VWS V12.08,2018-01-22 14:05:00,
2018-01-22 08:06:00,61.0,59.3,30.04,ESE,123,3.0,6.0,94,0.00,,,0.00,VWS V12.08,2018-01-22 14:06:00,
2018-01-22 08:07:00,61.0,59.3,30.04,SSE,150,4.0,6.0,94,0.00,,,0.00,VWS V12.08,2018-01-22 14:07:00,
2018-01-22 08:08:00,61.0,59.3,30.04,SE,137,4.0,6.0,94,0.00,,,0.00,VWS V12.08,2018-01-22 14:08:00,
2018-01-22 08:09:00,61.1,59.4,30.04,SE,141,2.0,6.0,94,0.00,,,0.00,VWS V12.08,2018-01-22 14:09:00,
2018-01-22 08:10:00,61.0,59.3,30.04,SSE,151,1.0,6.0,94,0.00,,,0.00,VWS V12.08,2018-01-22 14:10:00,
2018-01-22 08:11:00,61.1,59.4,30.04,ESE,117,3.0,9.0,94,0.00,,,0.00,VWS V12.08,2018-01-22 14:11:00,
2018-01-22 08:12:00,61.1,59.4,30.04,ESE,123,4.0,9.0,94,0.00,,,0.00,VWS V12.08,2018-01-22 14:12:00,
2018-01-22 08:13:00,61.1,59.4,30.04,ESE,120,2.0,9.0,94,0.00,,,0.00,VWS V12.08,2018-01-22 14:13:00,
2018-01-22 08:14:00,61.2,59.5,30.04,SE,146,3.0,9.0,94,0.00,,,0.00,VWS V12.08,2018-01-22 14:14:00,
2018-01-22 08:15:00,61.2,59.5,30.04,SE,124,0.0,9.0,94,0.00,,,0.00,VWS V12.08,2018-01-22 14:15:00,
2018-01-22 08:16:00,61.2,59.5,30.04,SSE,166,3.0,9.0,94,0.00,,,0.00,VWS V12.08,2018-01-22 14:16:00,
2018-01-22 08:17:00,61.2,59.5,30.04,SSE,158,5.0,9.0,94,0.00,,,0.00,VWS V12.08,2018-01-22 14:17:00,
2018-01-22 08:18:00,61.3,59.6,30.04,SE,140,2.0,9.0,94,0.00,,,0.00,VWS V12.08,2018-01-22 14:18:00,
2018-01-22 08:19:00,61.2,59.5,30.04,SE,136,3.0,9.0,94,0.00,,,0.00,VWS V12.08,2018-01-22 14:19:00,
2018-01-22 08:20:00,61.3,59.6,30.04,SSE,152,3.0,9.0,94,0.00,,,0.00,VWS V12.08,2018-01-22 14:20:00,
2018-01-22 08:21:00,61.3,59.6,30.04,ESE,120,5.0,9.0,94,0.00,,,0.00,VWS V12.08,2018-01-22 14:21:00,
2018-01-22 08:22:00,61.3,59.6,30.04,SE,125,2.0,9.0,94,0.00,,,0.00,VWS V12.08,2018-01-22 14:22:00,
2018-01-22 08:23:00,61.3,59.6,30.04,SE,135,0.0,9.0,94,0.00,,,0.00,VWS V12.08,2018-01-22 14:23:00,
2018-01-22 08:24:00,61.3,59.6,30.04,SE,132,4.0,9.0,94,0.00,,,0.00,VWS V12.08,2018-01-22 14:24:00,
2018-01-22 08:25:00,61.3,59.6,30.04,SE,145,2.0,9.0,94,0.00,,,0.00,VWS V12.08,2018-01-22 14:25:00,
2018-01-22 08:26:00,61.3,59.6,30.04,SE,137,5.0,9.0,94,0.00,,,0.00,VWS V12.08,2018-01-22 14:26:00,
2018-01-22 08:27:00,61.3,59.6,30.05,SE,126,3.0,9.0,94,0.00,,,0.00,VWS V12.08,2018-01-22 14:27:00,
2018-01-22 08:28:00,61.2,59.5,30.05,SSE,159,0.0,9.0,94,0.00,,,0.00,VWS V12.08,2018-01-22 14:28:00,
2018-01-22 08:29:00,61.2,59.5,30.05,SE,145,4.0,9.0,94,0.00,,,0.00,VWS V12.08,2018-01-22 14:29:00,
2018-01-22 08:30:00,61.2,59.5,30.05,SSE,165,5.0,9.0,94,0.00,,,0.00,VWS V12.08,2018-01-22 14:30:00,
2018-01-22 08:31:00,61.2,59.5,30.05,SE,136,5.0,6.0,94,0.00,,,0.00,VWS V12.08,2018-01-22 14:31:00,
2018-01-22 08:32:00,61.2,59.5,30.05,SSE,152,5.0,6.0,94,0.00,,,0.00,VWS V12.08,2018-01-22 14:32:00,
2018-01-22 08:33:00,61.2,59.5,30.05,SE,140,4.0,6.0,94,0.00,,,0.00,VWS V12.08,2018-01-22 14:33:00,
2018-01-22 08:34:00,61.2,59.5,30.05,SE,137,3.0,6.0,94,0.00,,,0.00,VWS V12.08,2018-01-22 14:34:00,
2018-01-22 08:35:00,61.1,59.1,30.05,SE,142,3.0,6.0,93,0.00,,,0.00,VWS V12.08,2018-01-22 14:35:00,
2018-01-22 08:36:00,61.1,59.1,30.05,SE,132,1.0,6.0,93,0.00,,,0.00,VWS V12.08,2018-01-22 14:36:00,
2018-01-22 08:37:00,61.1,59.1,30.05,SSE,151,0.0,6.0,93,0.00,,,0.00,VWS V12.08,2018-01-22 14:37:00,
2018-01-22 08:38:00,61.1,59.1,30.05,SE,128,2.0,6.0,93,0.00,,,0.00,VWS V12.08,2018-01-22 14:38:00,
2018-01-22 08:39:00,61.1,59.4,30.05,SE,135,2.0,6.0,94,0.00,,,0.00,VWS V12.08,2018-01-22 14:39:00,
2018-01-22 08:40:00,61.1,59.4,30.05,SE,127,1.0,6.0,94,0.00,,,0.00,VWS V12.08,2018-01-22 14:40:00,
2018-01-22 08:41:00,61.0,59.0,30.05,SSE,150,3.0,7.0,93,0.00,,,0.00,VWS V12.08,2018-01-22 14:41:00,
2018-01-22 08:42:00,61.0,59.3,30.05,SE,130,2.0,7.0,94,0.00,,,0.00,VWS V12.08,2018-01-22 14:42:00,
2018-01-22 08:43:00,61.0,59.3,30.05,SE,133,4.0,9.0,94,0.00,,,0.00,VWS V12.08,2018-01-22 14:43:00,
2018-01-22 08:44:00,61.0,59.3,30.05,SE,132,3.0,9.0,94,0.00,,,0.00,VWS V12.08,2018-01-22 14:44:00,
2018-01-22 08:45:00,61.0,59.3,30.05,SE,129,4.0,9.0,94,0.00,,,0.00,VWS V12.08,2018-01-22 14:45:00,
2018-01-22 08:46:00,61.0,59.3,30.05,SE,145,4.0,9.0,94,0.00,,,0.00,VWS V12.08,2018-01-22 14:46:00,
2018-01-22 08:47:00,61.0,59.3,30.05,SE,135,3.0,9.0,94,0.00,,,0.00,VWS V12.08,2018-01-22 14:47:00,
2018-01-22 08:48:00,61.0,59.3,30.05,SE,142,1.0,9.0,94,0.00,,,0.00,VWS V12.08,2018-01-22 14:48:00,
2018-01-22 08:49:00,61.0,59.3,30.05,SE,141,1.0,9.0,94,0.00,,,0.00,VWS V12.08,2018-01-22 14:49:00,
2018-01-22 08:50:00,61.1,59.4,30.05,SSE,147,1.0,9.0,94,0.00,,,0.00,VWS V12.08,2018-01-22 14:50:00,
2018-01-22 08:51:00,61.1,59.4,30.05,ESE,122,0.0,9.0,94,0.00,,,0.00,VWS V12.08,2018-01-22 14:51:00,
2018-01-22 08:52:00,61.2,59.5,30.05,ESE,120,0.0,9.0,94,0.00,,,0.00,VWS V12.08,2018-01-22 14:52:00,
2018-01-22 08:53:00,61.2,59.5,30.05,SE,140,3.0,9.0,94,0.00,,,0.00,VWS V12.08,2018-01-22 14:53:00,
2018-01-22 08:54:00,61.2,59.5,30.05,SE,128,1.0,9.0,94,0.00,,,0.00,VWS V12.08,2018-01-22 14:54:00,
2018-01-22 08:55:00,61.2,59.5,30.05,South,179,0.0,9.0,94,0.00,,,0.00,VWS V12.08,2018-01-22 14:55:00,
2018-01-22 08:56:00,61.2,59.5,30.05,SE,138,1.0,9.0,94,0.00,,,0.00,VWS V12.08,2018-01-22 14:56:00,
2018-01-22 08:57:00,61.3,59.6,30.05,SE,131,3.0,9.0,94,0.00,,,0.00,VWS V12.08,2018-01-22 14:57:00,
2018-01-22 08:58:00,61.3,59.6,30.05,SE,139,4.0,9.0,94,0.00,,,0.00,VWS V12.08,2018-01-22 14:58:00,
2018-01-22 08:59:00,61.3,59.6,30.05,SSE,152,4.0,9.0,94,0.00,,,0.00,VWS V12.08,2018-01-22 14:59:00,
2018-01-22 09:00:00,61.2,59.5,30.05,SE,145,3.0,9.0,94,0.00,,,0.00,VWS V12.08,2018-01-22 15:00:00,
2018-01-22 09:01:00,61.2,59.5,30.05,SE,125,3.0,10.0,94,0.00,,,0.00,VWS V12.08,2018-01-22 15:01:00,
2018-01-22 09:02:00,61.2,59.5,30.05,ESE,111,6.0,10.0,94,0.00,,,0.00,VWS V12.08,2018-01-22 15:02:00,
2018-01-22 09:03:00,61.2,59.2,30.05,SE,130,3.0,10.0,93,0.00,,,0.00,VWS V12.08,2018-01-22 15:03:00,
2018-01-22 09:04:00,61.3,59.6,30.05,SSE,147,6.0,10.0,94,0.00,,,0.00,VWS V12.08,2018-01-22 15:04:00,
2018-01-22 09:05:00,61.2,59.5,30.05,SE,135,4.0,10.0,94,0.00,,,0.00,VWS V12.08,2018-01-22 15:05:00,
2018-01-22 09:06:00,61.2,59.5,30.05,SE,141,4.0,10.0,94,0.00,,,0.00,VWS V12.08,2018-01-22 15:06:00,
2018-01-22 09:07:00,61.2,59.5,30.04,SE,140,3.0,10.0,94,0.00,,,0.00,VWS V12.08,2018-01-22 15:07:00,
2018-01-22 09:08:00,61.2,59.5,30.05,ESE,123,1.0,10.0,94,0.00,,,0.00,VWS V12.08,2018-01-22 15:08:00,
2018-01-22 09:09:00,61.2,59.5,30.05,SE,132,3.0,10.0,94,0.00,,,0.00,VWS V12.08,2018-01-22 15:09:00,
2018-01-22 09:10:00,61.3,59.6,30.05,SE,139,3.0,10.0,94,0.00,,,0.00,VWS V12.08,2018-01-22 15:10:00,
2018-01-22 09:11:00,61.3,59.6,30.05,ESE,119,5.0,10.0,94,0.00,,,0.00,VWS V12.08,2018-01-22 15:11:00,
2018-01-22 09:12:00,61.2,59.5,30.05,SE,126,2.0,10.0,94,0.00,,,0.00,VWS V12.08,2018-01-22 15:12:00,
2018-01-22 09:13:00,61.2,59.5,30.05,SE,125,3.0,10.0,94,0.00,,,0.00,VWS V12.08,2018-01-22 15:13:00,
2018-01-22 09:14:00,61.3,59.6,30.05,SSE,158,3.0,10.0,94,0.00,,,0.00,VWS V12.08,2018-01-22 15:14:00,
2018-01-22 09:15:00,61.3,59.6,30.05,SE,130,2.0,10.0,94,0.00,,,0.00,VWS V12.08,2018-01-22 15:15:00,
2018-01-22 09:16:00,61.3,59.6,30.05,SE,145,4.0,10.0,94,0.00,,,0.00,VWS V12.08,2018-01-22 15:16:00,
2018-01-22 09:17:00,61.3,59.6,30.05,SSE,155,6.0,10.0,94,0.00,,,0.00,VWS V12.08,2018-01-22 15:17:00,
2018-01-22 09:18:00,61.3,59.6,30.05,SE,126,3.0,10.0,94,0.00,,,0.00,VWS V12.08,2018-01-22 15:18:00,
2018-01-22 09:19:00,61.3,59.6,30.05,SE,126,2.0,10.0,94,0.00,,,0.00,VWS V12.08,2018-01-22 15:19:00,
2018-01-22 09:20:00,61.3,59.6,30.05,SE,130,2.0,10.0,94,0.00,,,0.00,VWS V12.08,2018-01-22 15:20:00,
2018-01-22 09:21:00,61.3,59.6,30.05,ESE,123,2.0,10.0,94,0.00,,,0.00,VWS V12.08,2018-01-22 15:21:00,
2018-01-22 09:22:00,61.3,59.6,30.05,SE,142,3.0,10.0,94,0.00,,,0.00,VWS V12.08,2018-01-22 15:22:00,
2018-01-22 09:23:00,61.3,59.6,30.05,SSE,155,3.0,10.0,94,0.00,,,0.00,VWS V12.08,2018-01-22 15:23:00,
2018-01-22 09:24:00,61.3,59.6,30.05,SE,139,4.0,10.0,94,0.00,,,0.00,VWS V12.08,2018-01-22 15:24:00,
2018-01-22 09:25:00,61.3,59.6,30.05,SSE,148,3.0,10.0,94,0.00,,,0.00,VWS V12.08,2018-01-22 15:25:00,
2018-01-22 09:26:00,61.4,59.7,30.05,SSE,148,2.0,10.0,94,0.00,,,0.00,VWS V12.08,2018-01-22 15:26:00,
2018-01-22 09:27:00,61.4,59.7,30.05,SSE,164,2.0,10.0,94,0.00,,,0.00,VWS V12.08,2018-01-22 15:27:00,
2018-01-22 09:28:00,61.4,59.7,30.05,SSE,159,5.0,10.0,94,0.00,,,0.00,VWS V12.08,2018-01-22 15:28:00,
2018-01-22 09:29:00,61.4,59.7,30.05,SE,142,4.0,10.0,94,0.00,,,0.00,VWS V12.08,2018-01-22 15:29:00,
2018-01-22 09:30:00,61.4,59.7,30.05,SE,124,1.0,10.0,94,0.00,,,0.00,VWS V12.08,2018-01-22 15:30:00,
2018-01-22 09:31:00,61.4,59.7,30.05,SE,133,3.0,6.0,94,0.00,,,0.00,VWS V12.08,2018-01-22 15:31:00,
2018-01-22 09:32:00,61.5,59.8,30.05,ESE,123,1.0,6.0,94,0.00,,,0.00,VWS V12.08,2018-01-22 15:32:00,
2018-01-22 09:33:00,61.5,59.8,30.05,SE,134,3.0,6.0,94,0.00,,,0.00,VWS V12.08,2018-01-22 15:33:00,
2018-01-22 09:34:00,61.5,59.8,30.05,SE,131,5.0,8.0,94,0.00,,,0.00,VWS V12.08,2018-01-22 15:34:00,
2018-01-22 09:35:00,61.5,59.8,30.05,SE,128,2.0,8.0,94,0.00,,,0.00,VWS V12.08,2018-01-22 15:35:00,
2018-01-22 09:36:00,61.5,59.8,30.05,SE,134,5.0,8.0,94,0.00,,,0.00,VWS V12.08,2018-01-22 15:36:00,
2018-01-22 09:37:00,61.5,59.8,30.05,SE,139,2.0,8.0,94,0.00,,,0.00,VWS V12.08,2018-01-22 15:37:00,
2018-01-22 09:38:00,61.6,59.9,30.05,SSE,149,3.0,8.0,94,0.00,,,0.00,VWS V12.08,2018-01-22 15:38:00,
2018-01-22 09:39:00,61.6,59.9,30.05,SE,133,4.0,8.0,94,0.00,,,0.00,VWS V12.08,2018-01-22 15:39:00,
2018-01-22 09:40:00,61.7,60.3,30.05,SE,140,2.0,8.0,95,0.00,,,0.00,VWS V12.08,2018-01-22 15:40:00,
2018-01-22 09:41:00,61.8,60.1,30.05,SSE,161,5.0,8.0,94,0.00,,,0.00,VWS V12.08,2018-01-22 15:41:00,
2018-01-22 09:42:00,61.8,60.1,30.05,SSE,153,3.0,8.0,94,0.00,,,0.00,VWS V12.08,2018-01-22 15:42:00,
2018-01-22 09:43:00,61.9,60.2,30.05,ESE,121,0.0,8.0,94,0.00,,,0.00,VWS V12.08,2018-01-22 15:43:00,
2018-01-22 09:44:00,61.9,60.2,30.05,SSE,148,2.0,8.0,94,0.00,,,0.00,VWS V12.08,2018-01-22 15:44:00,
2018-01-22 09:45:00,62.0,60.3,30.05,SSE,162,0.0,8.0,94,0.00,,,0.00,VWS V12.08,2018-01-22 15:45:00,
2018-01-22 09:46:00,62.0,60.3,30.05,SSE,149,2.0,8.0,94,0.00,,,0.00,VWS V12.08,2018-01-22 15:46:00,
2018-01-22 09:47:00,62.1,60.4,30.05,SE,131,2.0,8.0,94,0.00,,,0.00,VWS V12.08,2018-01-22 15:47:00,
2018-01-22 09:48:00,62.2,60.5,30.05,SE,144,1.0,8.0,94,0.00,,,0.00,VWS V12.08,2018-01-22 15:48:00,
2018-01-22 09:49:00,62.2,60.5,30.05,SE,133,2.0,8.0,94,0.00,,,0.00,VWS V12.08,2018-01-22 15:49:00,
2018-01-22 09:50:00,62.2,60.5,30.05,SE,126,2.0,8.0,94,0.00,,,0.00,VWS V12.08,2018-01-22 15:50:00,
2018-01-22 09:51:00,62.3,60.6,30.05,SE,144,3.0,8.0,94,0.00,,,0.00,VWS V12.08,2018-01-22 15:51:00,
2018-01-22 09:52:00,62.4,60.7,30.05,ESE,120,3.0,8.0,94,0.00,,,0.00,VWS V12.08,2018-01-22 15:52:00,
2018-01-22 09:53:00,62.4,60.7,30.05,SE,130,2.0,8.0,94,0.00,,,0.00,VWS V12.08,2018-01-22 15:53:00,
2018-01-22 09:54:00,62.4,60.7,30.05,SE,130,0.0,8.0,94,0.00,,,0.00,VWS V12.08,2018-01-22 15:54:00,
2018-01-22 09:55:00,62.4,60.7,30.05,SE,143,3.0,8.0,94,0.00,,,0.00,VWS V12.08,2018-01-22 15:55:00,
2018-01-22 09:56:00,62.4,60.3,30.05,ESE,123,2.0,8.0,93,0.00,,,0.00,VWS V12.08,2018-01-22 15:56:00,
2018-01-22 09:57:00,62.5,60.5,30.05,SE,134,2.0,8.0,93,0.00,,,0.00,VWS V12.08,2018-01-22 15:57:00,
2018-01-22 09:58:00,62.5,60.5,30.05,SE,136,5.0,8.0,93,0.00,,,0.00,VWS V12.08,2018-01-22 15:58:00,
2018-01-22 09:59:00,62.4,60.3,30.05,SE,132,4.0,8.0,93,0.00,,,0.00,VWS V12.08,2018-01-22 15:59:00,
2018-01-22 10:00:00,62.5,60.5,30.05,SE,126,4.0,8.0,93,0.00,,,0.00,VWS V12.08,2018-01-22 16:00:00,
2018-01-22 10:01:00,62.5,60.5,30.04,SE,130,5.0,7.0,93,0.00,,,0.00,VWS V12.08,2018-01-22 16:01:00,
2018-01-22 10:02:00,62.6,60.5,30.05,SE,126,3.0,8.0,93,0.00,,,0.00,VWS V12.08,2018-01-22 16:02:00,
2018-01-22 10:03:00,62.6,60.5,30.05,ESE,123,4.0,8.0,93,0.00,,,0.00,VWS V12.08,2018-01-22 16:03:00,
2018-01-22 10:04:00,62.5,60.5,30.04,ESE,117,3.0,8.0,93,0.00,,,0.00,VWS V12.08,2018-01-22 16:04:00,
2018-01-22 10:05:00,62.5,60.5,30.05,SE,131,3.0,8.0,93,0.00,,,0.00,VWS V12.08,2018-01-22 16:05:00,
2018-01-22 10:06:00,62.4,60.3,30.04,SE,130,3.0,8.0,93,0.00,,,0.00,VWS V12.08,2018-01-22 16:06:00,
2018-01-22 10:07:00,62.5,60.5,30.05,SE,145,4.0,8.0,93,0.00,,,0.00,VWS V12.08,2018-01-22 16:07:00,
2018-01-22 10:08:00,62.5,60.5,30.04,ESE,117,4.0,8.0,93,0.00,,,0.00,VWS V12.08,2018-01-22 16:08:00,
2018-01-22 10:09:00,62.5,60.5,30.05,SE,130,3.0,8.0,93,0.00,,,0.00,VWS V12.08,2018-01-22 16:09:00,
2018-01-22 10:10:00,62.4,60.3,30.05,SE,140,3.0,8.0,93,0.00,,,0.00,VWS V12.08,2018-01-22 16:10:00,
2018-01-22 10:11:00,62.4,60.3,30.05,SE,139,3.0,8.0,93,0.00,,,0.00,VWS V12.08,2018-01-22 16:11:00,
2018-01-22 10:12:00,62.3,60.2,30.04,SE,124,4.0,8.0,93,0.00,,,0.00,VWS V12.08,2018-01-22 16:12:00,
2018-01-22 10:13:00,62.3,60.2,30.05,SE,130,4.0,8.0,93,0.00,,,0.00,VWS V12.08,2018-01-22 16:13:00,
2018-01-22 10:14:00,62.2,60.2,30.04,SE,124,0.0,8.0,93,0.00,,,0.00,VWS V12.08,2018-01-22 16:14:00,
2018-01-22 10:15:00,62.3,60.2,30.04,ESE,116,4.0,8.0,93,0.00,,,0.00,VWS V12.08,2018-01-22 16:15:00,
2018-01-22 10:16:00,62.3,60.2,30.04,SE,132,3.0,8.0,93,0.00,,,0.00,VWS V12.08,2018-01-22 16:16:00,
2018-01-22 10:17:00,62.3,60.2,30.04,ESE,117,4.0,8.0,93,0.00,,,0.00,VWS V12.08,2018-01-22 16:17:00,
2018-01-22 10:18:00,62.3,60.2,30.03,SE,132,3.0,8.0,93,0.00,,,0.00,VWS V12.08,2018-01-22 16:18:00,
2018-01-22 10:19:00,62.2,60.2,30.03,SE,130,4.0,8.0,93,0.00,,,0.00,VWS V12.08,2018-01-22 16:19:00,
2018-01-22 10:20:00,62.2,60.2,30.03,SE,132,3.0,8.0,93,0.00,,,0.00,VWS V12.08,2018-01-22 16:20:00,
2018-01-22 10:21:00,62.3,60.2,30.03,ESE,120,2.0,8.0,93,0.00,,,0.00,VWS V12.08,2018-01-22 16:21:00,
2018-01-22 10:22:00,62.3,60.2,30.03,ESE,117,4.0,8.0,93,0.00,,,0.00,VWS V12.08,2018-01-22 16:22:00,
2018-01-22 10:23:00,62.3,60.2,30.03,SE,128,3.0,8.0,93,0.00,,,0.00,VWS V12.08,2018-01-22 16:23:00,
2018-01-22 10:24:00,62.3,60.2,30.03,SE,135,4.0,8.0,93,0.00,,,0.00,VWS V12.08,2018-01-22 16:24:00,
2018-01-22 10:25:00,62.4,60.3,30.03,ESE,121,3.0,8.0,93,0.00,,,0.00,VWS V12.08,2018-01-22 16:25:00,
2018-01-22 10:26:00,62.4,60.3,30.03,SE,131,5.0,8.0,93,0.00,,,0.00,VWS V12.08,2018-01-22 16:26:00,
2018-01-22 10:27:00,62.3,60.2,30.03,SE,133,7.0,8.0,93,0.00,,,0.00,VWS V12.08,2018-01-22 16:27:00,
2018-01-22 10:28:00,62.3,60.2,30.03,East,101,4.0,8.0,93,0.00,,,0.00,VWS V12.08,2018-01-22 16:28:00,
2018-01-22 10:29:00,62.3,60.2,30.03,SE,126,7.0,8.0,93,0.00,,,0.00,VWS V12.08,2018-01-22 16:29:00,
2018-01-22 10:30:00,62.3,60.2,30.02,SE,125,4.0,8.0,93,0.00,,,0.00,VWS V12.08,2018-01-22 16:30:00,
2018-01-22 10:31:00,62.3,60.2,30.02,ESE,123,3.0,4.0,93,0.00,,,0.00,VWS V12.08,2018-01-22 16:31:00,
2018-01-22 10:32:00,62.4,60.3,30.02,ESE,113,3.0,4.0,93,0.00,,,0.00,VWS V12.08,2018-01-22 16:32:00,
2018-01-22 10:33:00,62.4,60.7,30.02,SE,125,3.0,6.0,94,0.00,,,0.00,VWS V12.08,2018-01-22 16:33:00,
2018-01-22 10:34:00,62.5,60.8,30.02,SE,142,4.0,6.0,94,0.00,,,0.00,VWS V12.08,2018-01-22 16:34:00,
2018-01-22 10:35:00,62.6,60.8,30.02,SE,126,2.0,7.0,94,0.00,,,0.00,VWS V12.08,2018-01-22 16:35:00,
2018-01-22 10:36:00,62.7,61.0,30.02,SE,133,3.0,7.0,94,0.00,,,0.00,VWS V12.08,2018-01-22 16:36:00,
2018-01-22 10:37:00,62.8,61.0,30.02,ESE,107,3.0,7.0,94,0.00,,,0.00,VWS V12.08,2018-01-22 16:37:00,
2018-01-22 10:38:00,62.8,61.0,30.02,SE,127,3.0,7.0,94,0.00,,,0.00,VWS V12.08,2018-01-22 16:38:00,
2018-01-22 10:39:00,62.9,61.2,30.03,ESE,113,3.0,7.0,94,0.00,,,0.00,VWS V12.08,2018-01-22 16:39:00,
2018-01-22 10:40:00,63.0,61.2,30.03,SE,140,4.0,7.0,94,0.00,,,0.00,VWS V12.08,2018-01-22 16:40:00,
2018-01-22 10:41:00,63.1,61.3,30.02,ESE,116,4.0,7.0,94,0.00,,,0.00,VWS V12.08,2018-01-22 16:41:00,
2018-01-22 10:42:00,63.1,61.3,30.02,SE,132,3.0,8.0,94,0.00,,,0.00,VWS V12.08,2018-01-22 16:42:00,
2018-01-22 10:43:00,63.2,61.2,30.02,ESE,112,6.0,8.0,93,0.00,,,0.00,VWS V12.08,2018-01-22 16:43:00,
2018-01-22 10:44:00,63.2,61.2,30.02,SE,131,4.0,8.0,93,0.00,,,0.00,VWS V12.08,2018-01-22 16:44:00,
2018-01-22 10:45:00,63.2,61.2,30.02,SE,126,2.0,8.0,93,0.00,,,0.00,VWS V12.08,2018-01-22 16:45:00,
2018-01-22 10:46:00,63.2,61.2,30.02,SE,139,7.0,8.0,93,0.00,,,0.00,VWS V12.08,2018-01-22 16:46:00,
2018-01-22 10:47:00,62.3,60.2,30.02,SE,127,3.0,4.0,93,0.00,,,0.00,VWS V12.08,2018-01-22 16:47:00,
2018-01-22 10:48:00,63.2,61.2,30.02,ESE,123,3.0,8.0,93,0.00,,,0.00,VWS V12.08,2018-01-22 16:48:00,
2018-01-22 10:49:00,63.2,61.2,30.02,SE,124,2.0,8.0,93,0.00,,,0.00,VWS V12.08,2018-01-22 16:49:00,
2018-01-22 10:50:00,63.2,61.2,30.02,SE,126,3.0,8.0,93,0.00,,,0.00,VWS V12.08,2018-01-22 16:50:00,
2018-01-22 10:51:00,63.2,61.2,30.02,SE,142,4.0,8.0,93,0.00,,,0.00,VWS V12.08,2018-01-22 16:51:00,
2018-01-22 10:52:00,63.3,61.2,30.02,SSE,152,3.0,8.0,93,0.00,,,0.00,VWS V12.08,2018-01-22 16:52:00,
2018-01-22 10:53:00,63.5,61.8,30.01,SE,126,2.0,8.0,94,0.00,,,0.00,VWS V12.08,2018-01-22 16:53:00,
2018-01-22 10:54:00,63.6,61.8,30.01,SE,136,0.0,8.0,94,0.00,,,0.00,VWS V12.08,2018-01-22 16:54:00,
2018-01-22 10:55:00,63.7,62.0,30.01,SE,125,3.0,8.0,94,0.00,,,0.00,VWS V12.08,2018-01-22 16:55:00,
2018-01-22 10:56:00,63.9,62.1,30.01,SSE,165,5.0,8.0,94,0.00,,,0.00,VWS V12.08,2018-01-22 16:56:00,
2018-01-22 10:57:00,64.0,62.2,30.01,SSE,160,8.0,8.0,94,0.00,,,0.00,VWS V12.08,2018-01-22 16:57:00,
2018-01-22 10:58:00,64.1,62.0,30.01,ESE,121,4.0,8.0,93,0.00,,,0.00,VWS V12.08,2018-01-22 16:58:00,
2018-01-22 10:59:00,64.1,62.0,30.01,South,190,5.0,8.0,93,0.00,,,0.00,VWS V12.08,2018-01-22 16:59:00,
2018-01-22 11:00:00,64.3,62.2,30.00,ESE,122,4.0,8.0,93,0.00,,,0.00,VWS V12.08,2018-01-22 17:00:00,
2018-01-22 11:01:00,64.3,62.2,30.00,SSE,167,5.0,8.0,93,0.00,,,0.00,VWS V12.08,2018-01-22 17:01:00,
2018-01-22 11:02:00,64.5,62.4,30.00,ESE,115,3.0,8.0,93,0.00,,,0.00,VWS V12.08,2018-01-22 17:02:00,
2018-01-22 11:03:00,64.6,62.5,30.00,ESE,119,5.0,8.0,93,0.00,,,0.00,VWS V12.08,2018-01-22 17:03:00,
2018-01-22 11:04:00,64.7,62.6,30.00,SE,130,5.0,8.0,93,0.00,,,0.00,VWS V12.08,2018-01-22 17:04:00,
2018-01-22 11:05:00,64.9,62.8,30.00,SE,130,4.0,8.0,93,0.00,,,0.00,VWS V12.08,2018-01-22 17:05:00,
2018-01-22 11:06:00,65.0,62.9,30.00,SE,136,5.0,8.0,93,0.00,,,0.00,VWS V12.08,2018-01-22 17:06:00,
2018-01-22 11:07:00,65.2,63.1,30.00,ESE,109,3.0,8.0,93,0.00,,,0.00,VWS V12.08,2018-01-22 17:07:00,
2018-01-22 11:08:00,65.3,63.2,30.00,ESE,123,3.0,10.0,93,0.00,,,0.00,VWS V12.08,2018-01-22 17:08:00,
2018-01-22 11:09:00,65.4,63.0,29.99,SE,124,3.0,10.0,92,0.00,,,0.00,VWS V12.08,2018-01-22 17:09:00,
2018-01-22 11:10:00,65.5,63.1,29.99,SE,144,6.0,10.0,92,0.00,,,0.00,VWS V12.08,2018-01-22 17:10:00,
2018-01-22 11:11:00,65.6,62.9,29.99,SE,140,5.0,10.0,91,0.00,,,0.00,VWS V12.08,2018-01-22 17:11:00,
2018-01-22 11:12:00,65.7,63.3,29.99,SE,129,4.0,10.0,92,0.00,,,0.00,VWS V12.08,2018-01-22 17:12:00,
2018-01-22 11:13:00,65.8,63.1,29.99,SE,135,4.0,10.0,91,0.00,,,0.00,VWS V12.08,2018-01-22 17:13:00,
2018-01-22 11:14:00,65.8,63.1,29.99,SE,135,5.0,10.0,91,0.00,,,0.00,VWS V12.08,2018-01-22 17:14:00,
2018-01-22 11:15:00,65.8,62.8,29.99,ESE,117,4.0,10.0,90,0.00,,,0.00,VWS V12.08,2018-01-22 17:15:00,
2018-01-22 11:16:00,65.8,63.1,29.99,SE,127,7.0,10.0,91,0.00,,,0.00,VWS V12.08,2018-01-22 17:16:00,
2018-01-22 11:17:00,65.8,62.8,29.98,SE,142,6.0,10.0,90,0.00,,,0.00,VWS V12.08,2018-01-22 17:17:00,
2018-01-22 11:18:00,65.8,62.8,29.98,ESE,113,6.0,10.0,90,0.00,,,0.00,VWS V12.08,2018-01-22 17:18:00,
2018-01-22 11:19:00,65.8,62.8,29.98,SE,134,4.0,10.0,90,0.00,,,0.00,VWS V12.08,2018-01-22 17:19:00,
2018-01-22 11:20:00,65.9,62.9,29.98,ESE,104,4.0,10.0,90,0.00,,,0.00,VWS V12.08,2018-01-22 17:20:00,
2018-01-22 11:21:00,65.9,62.9,29.98,ESE,121,5.0,10.0,90,0.00,,,0.00,VWS V12.08,2018-01-22 17:21:00,
2018-01-22 11:22:00,65.9,62.9,29.98,SE,134,4.0,10.0,90,0.00,,,0.00,VWS V12.08,2018-01-22 17:22:00,
2018-01-22 11:23:00,65.8,62.5,29.98,SE,134,5.0,10.0,89,0.00,,,0.00,VWS V12.08,2018-01-22 17:23:00,
2018-01-22 11:24:00,65.8,62.5,29.98,SE,140,5.0,10.0,89,0.00,,,0.00,VWS V12.08,2018-01-22 17:24:00,
2018-01-22 11:25:00,65.7,62.7,29.98,ESE,115,3.0,10.0,90,0.00,,,0.00,VWS V12.08,2018-01-22 17:25:00,
2018-01-22 11:26:00,65.7,62.7,29.98,SE,134,3.0,10.0,90,0.00,,,0.00,VWS V12.08,2018-01-22 17:26:00,
2018-01-22 11:27:00,65.7,63.0,29.98,SE,133,4.0,10.0,91,0.00,,,0.00,VWS V12.08,2018-01-22 17:27:00,
2018-01-22 11:28:00,65.8,63.1,29.98,ESE,111,4.0,10.0,91,0.00,,,0.00,VWS V12.08,2018-01-22 17:28:00,
2018-01-22 11:29:00,65.8,63.1,29.98,ESE,102,3.0,10.0,91,0.00,,,0.00,VWS V12.08,2018-01-22 17:29:00,
2018-01-22 11:30:00,65.8,63.1,29.98,ESE,120,3.0,10.0,91,0.00,,,0.00,VWS V12.08,2018-01-22 17:30:00,
2018-01-22 11:31:00,65.9,63.2,29.98,ESE,109,7.0,7.0,91,0.00,,,0.00,VWS V12.08,2018-01-22 17:31:00,
2018-01-22 11:32:00,65.9,63.2,29.98,SE,137,5.0,8.0,91,0.00,,,0.00,VWS V12.08,2018-01-22 17:32:00,
2018-01-22 11:33:00,65.9,63.2,29.97,SSE,152,4.0,8.0,91,0.00,,,0.00,VWS V12.08,2018-01-22 17:33:00,
2018-01-22 11:34:00,66.0,63.3,29.97,SE,134,9.0,9.0,91,0.00,,,0.00,VWS V12.08,2018-01-22 17:34:00,
2018-01-22 11:35:00,65.9,63.2,29.97,SE,143,6.0,9.0,91,0.00,,,0.00,VWS V12.08,2018-01-22 17:35:00,
2018-01-22 11:36:00,65.8,63.1,29.97,SE,128,7.0,9.0,91,0.00,,,0.00,VWS V12.08,2018-01-22 17:36:00,
2018-01-22 11:37:00,65.8,63.1,29.97,SE,142,6.0,9.0,91,0.00,,,0.00,VWS V12.08,2018-01-22 17:37:00,
2018-01-22 11:38:00,65.8,63.1,29.97,SE,125,5.0,9.0,91,0.00,,,0.00,VWS V12.08,2018-01-22 17:38:00,
2018-01-22 11:39:00,65.8,63.1,29.97,SSE,155,9.0,9.0,91,0.00,,,0.00,VWS V12.08,2018-01-22 17:39:00,
2018-01-22 11:40:00,65.8,63.1,29.97,SSE,150,6.0,11.0,91,0.00,,,0.00,VWS V12.08,2018-01-22 17:40:00,
2018-01-22 11:41:00,65.8,63.1,29.97,ESE,123,4.0,11.0,91,0.00,,,0.00,VWS V12.08,2018-01-22 17:41:00,
2018-01-22 11:42:00,65.8,63.1,29.96,SE,138,5.0,11.0,91,0.00,,,0.00,VWS V12.08,2018-01-22 17:42:00,
2018-01-22 11:43:00,65.7,63.0,29.96,SE,140,5.0,11.0,91,0.00,,,0.00,VWS V12.08,2018-01-22 17:43:00,
2018-01-22 11:44:00,65.8,63.1,29.96,SE,142,6.0,11.0,91,0.00,,,0.00,VWS V12.08,2018-01-22 17:44:00,
2018-01-22 11:45:00,65.7,63.0,29.96,South,181,4.0,11.0,91,0.00,,,0.00,VWS V12.08,2018-01-22 17:45:00,
2018-01-22 11:46:00,65.6,62.9,29.95,ESE,108,6.0,11.0,91,0.00,,,0.00,VWS V12.08,2018-01-22 17:46:00,
2018-01-22 11:47:00,65.6,62.9,29.95,SE,133,4.0,11.0,91,0.00,,,0.00,VWS V12.08,2018-01-22 17:47:00,
2018-01-22 11:48:00,65.5,62.8,29.95,SSE,150,5.0,11.0,91,0.00,,,0.00,VWS V12.08,2018-01-22 17:48:00,
2018-01-22 11:49:00,65.5,62.8,29.95,SE,137,4.0,11.0,91,0.00,,,0.00,VWS V12.08,2018-01-22 17:49:00,
2018-01-22 11:50:00,65.5,62.8,29.96,ESE,120,4.0,11.0,91,0.00,,,0.00,VWS V12.08,2018-01-22 17:50:00,
2018-01-22 11:51:00,65.4,62.7,29.96,SE,146,5.0,11.0,91,0.00,,,0.00,VWS V12.08,2018-01-22 17:51:00,
2018-01-22 11:52:00,65.3,62.6,29.96,ESE,123,4.0,11.0,91,0.00,,,0.00,VWS V12.08,2018-01-22 17:52:00,
2018-01-22 11:53:00,65.3,62.6,29.96,SE,138,7.0,11.0,91,0.00,,,0.00,VWS V12.08,2018-01-22 17:53:00,
2018-01-22 11:54:00,65.3,62.9,29.96,SE,137,3.0,11.0,92,0.00,,,0.00,VWS V12.08,2018-01-22 17:54:00,
2018-01-22 11:55:00,65.3,62.9,29.96,SE,132,5.0,11.0,92,0.00,,,0.00,VWS V12.08,2018-01-22 17:55:00,
2018-01-22 11:56:00,65.3,62.9,29.96,SE,146,4.0,11.0,92,0.00,,,0.00,VWS V12.08,2018-01-22 17:56:00,
2018-01-22 11:57:00,65.3,62.9,29.96,SE,140,4.0,11.0,92,0.00,,,0.00,VWS V12.08,2018-01-22 17:57:00,
2018-01-22 11:58:00,65.3,62.9,29.96,SE,136,5.0,11.0,92,0.00,,,0.00,VWS V12.08,2018-01-22 17:58:00,
2018-01-22 11:59:00,65.3,62.9,29.96,SE,135,4.0,11.0,92,0.00,,,0.00,VWS V12.08,2018-01-22 17:59:00,
2018-01-22 12:00:00,65.3,62.9,29.96,SE,142,4.0,11.0,92,0.00,,,0.00,VWS V12.08,2018-01-22 18:00:00,
2018-01-22 12:01:00,65.2,62.5,29.96,ESE,113,6.0,6.0,91,0.00,,,0.00,VWS V12.08,2018-01-22 18:01:00,
2018-01-22 12:02:00,65.2,62.8,29.96,SSW,211,4.0,6.0,92,0.00,,,0.00,VWS V12.08,2018-01-22 18:02:00,
2018-01-22 12:03:00,65.1,62.4,29.96,SE,134,7.0,8.0,91,0.00,,,0.00,VWS V12.08,2018-01-22 18:03:00,
2018-01-22 12:04:00,65.0,62.3,29.96,SE,132,2.0,10.0,91,0.00,,,0.00,VWS V12.08,2018-01-22 18:04:00,
2018-01-22 12:05:00,65.0,62.6,29.96,SE,138,4.0,10.0,92,0.00,,,0.00,VWS V12.08,2018-01-22 18:05:00,
2018-01-22 12:06:00,64.9,62.5,29.96,SE,140,5.0,10.0,92,0.00,,,0.00,VWS V12.08,2018-01-22 18:06:00,
2018-01-22 12:07:00,64.9,62.5,29.96,SE,132,8.0,10.0,92,0.00,,,0.00,VWS V12.08,2018-01-22 18:07:00,
2018-01-22 12:08:00,64.8,62.4,29.96,SE,133,5.0,10.0,92,0.00,,,0.00,VWS V12.08,2018-01-22 18:08:00,
2018-01-22 12:09:00,64.8,62.4,29.96,ESE,109,7.0,10.0,92,0.00,,,0.00,VWS V12.08,2018-01-22 18:09:00,
2018-01-22 12:10:00,64.8,62.4,29.96,SE,134,4.0,10.0,92,0.00,,,0.00,VWS V12.08,2018-01-22 18:10:00,
2018-01-22 12:11:00,64.7,62.3,29.96,SE,137,5.0,10.0,92,0.00,,,0.00,VWS V12.08,2018-01-22 18:11:00,
2018-01-22 12:12:00,64.7,62.3,29.96,SE,136,0.0,10.0,92,0.00,,,0.00,VWS V12.08,2018-01-22 18:12:00,
2018-01-22 12:13:00,64.7,62.3,29.96,SE,132,3.0,10.0,92,0.00,,,0.00,VWS V12.08,2018-01-22 18:13:00,
2018-01-22 12:14:00,64.7,62.6,29.96,SE,143,4.0,10.0,93,0.00,,,0.00,VWS V12.08,2018-01-22 18:14:00,
2018-01-22 12:15:00,64.7,62.3,29.96,SE,125,8.0,10.0,92,0.00,,,0.00,VWS V12.08,2018-01-22 18:15:00,
2018-01-22 12:16:00,64.7,62.3,29.96,SE,143,8.0,10.0,92,0.00,,,0.00,VWS V12.08,2018-01-22 18:16:00,
2018-01-22 12:17:00,64.6,62.2,29.96,East,92,3.0,10.0,92,0.00,,,0.00,VWS V12.08,2018-01-22 18:17:00,
2018-01-22 12:18:00,64.5,62.1,29.96,ESE,121,5.0,10.0,92,0.00,,,0.00,VWS V12.08,2018-01-22 18:18:00,
2018-01-22 12:19:00,64.6,62.5,29.96,ESE,113,7.0,10.0,93,0.00,,,0.00,VWS V12.08,2018-01-22 18:19:00,
2018-01-22 12:20:00,64.5,62.4,29.95,SE,130,3.0,10.0,93,0.00,,,0.00,VWS V12.08,2018-01-22 18:20:00,
2018-01-22 12:21:00,64.5,62.4,29.96,SE,132,3.0,10.0,93,0.00,,,0.00,VWS V12.08,2018-01-22 18:21:00,
2018-01-22 12:22:00,64.5,62.4,29.95,SSE,150,5.0,10.0,93,0.00,,,0.00,VWS V12.08,2018-01-22 18:22:00,
2018-01-22 12:23:00,64.5,62.4,29.96,SE,142,3.0,10.0,93,0.00,,,0.00,VWS V12.08,2018-01-22 18:23:00,
2018-01-22 12:24:00,64.4,62.3,29.95,SE,143,8.0,10.0,93,0.00,,,0.00,VWS V12.08,2018-01-22 18:24:00,
2018-01-22 12:25:00,64.4,62.3,29.95,ESE,119,4.0,10.0,93,0.00,,,0.00,VWS V12.08,2018-01-22 18:25:00,
2018-01-22 12:26:00,64.5,62.4,29.95,SE,132,5.0,10.0,93,0.00,,,0.00,VWS V12.08,2018-01-22 18:26:00,
2018-01-22 12:27:00,64.5,62.4,29.95,ESE,123,4.0,10.0,93,0.00,,,0.00,VWS V12.08,2018-01-22 18:27:00,
2018-01-22 12:28:00,64.5,62.4,29.95,SSE,150,6.0,10.0,93,0.00,,,0.00,VWS V12.08,2018-01-22 18:28:00,
2018-01-22 12:29:00,64.5,62.4,29.95,ESE,103,4.0,10.0,93,0.00,,,0.00,VWS V12.08,2018-01-22 18:29:00,
2018-01-22 12:30:00,64.5,62.4,29.95,SE,129,5.0,10.0,93,0.00,,,0.00,VWS V12.08,2018-01-22 18:30:00,
2018-01-22 12:31:00,64.5,62.4,29.95,SE,145,4.0,7.0,93,0.00,,,0.00,VWS V12.08,2018-01-22 18:31:00,
2018-01-22 12:32:00,64.5,62.4,29.95,SE,129,8.0,8.0,93,0.00,,,0.00,VWS V12.08,2018-01-22 18:32:00,
2018-01-22 12:33:00,64.5,62.4,29.95,SE,132,7.0,8.0,93,0.00,,,0.00,VWS V12.08,2018-01-22 18:33:00,
2018-01-22 12:34:00,64.5,62.4,29.95,ESE,123,7.0,9.0,93,0.00,,,0.00,VWS V12.08,2018-01-22 18:34:00,
2018-01-22 12:35:00,64.5,62.4,29.95,SSE,161,5.0,9.0,93,0.00,,,0.00,VWS V12.08,2018-01-22 18:35:00,
2018-01-22 12:36:00,64.5,62.7,29.95,SE,133,5.0,9.0,94,0.00,,,0.00,VWS V12.08,2018-01-22 18:36:00,
2018-01-22 12:37:00,64.5,62.7,29.95,East,94,4.0,9.0,94,0.00,,,0.00,VWS V12.08,2018-01-22 18:37:00,
2018-01-22 12:38:00,64.5,62.7,29.95,SE,130,8.0,9.0,94,0.00,,,0.00,VWS V12.08,2018-01-22 18:38:00,
2018-01-22 12:39:00,64.4,62.6,29.95,SE,142,5.0,10.0,94,0.00,,,0.00,VWS V12.08,2018-01-22 18:39:00,
2018-01-22 12:40:00,64.3,62.2,29.95,ESE,123,5.0,10.0,93,0.00,,,0.00,VWS V12.08,2018-01-22 18:40:00,
2018-01-22 12:41:00,64.3,62.5,29.96,ESE,122,3.0,10.0,94,0.00,,,0.00,VWS V12.08,2018-01-22 18:41:00,
2018-01-22 12:42:00,64.2,62.4,29.96,SE,127,5.0,10.0,94,0.00,,,0.00,VWS V12.08,2018-01-22 18:42:00,
2018-01-22 12:43:00,64.2,62.4,29.96,SE,126,7.0,10.0,94,0.00,,,0.00,VWS V12.08,2018-01-22 18:43:00,
2018-01-22 12:44:00,64.1,62.3,29.96,SE,140,4.0,10.0,94,0.00,,,0.00,VWS V12.08,2018-01-22 18:44:00,
2018-01-22 12:45:00,64.1,62.3,29.96,SE,125,4.0,10.0,94,0.00,,,0.00,VWS V12.08,2018-01-22 18:45:00,
2018-01-22 12:46:00,64.0,62.2,29.95,SE,142,5.0,10.0,94,0.00,,,0.00,VWS V12.08,2018-01-22 18:46:00,
2018-01-22 12:47:00,64.0,62.2,29.95,ESE,109,3.0,10.0,94,0.00,,,0.00,VWS V12.08,2018-01-22 18:47:00,
2018-01-22 12:48:00,64.0,62.2,29.95,SE,136,3.0,10.0,94,0.00,,,0.00,VWS V12.08,2018-01-22 18:48:00,
2018-01-22 12:49:00,63.9,62.1,29.95,SE,145,3.0,10.0,94,0.00,,,0.00,VWS V12.08,2018-01-22 18:49:00,
2018-01-22 12:50:00,64.0,62.2,29.95,SE,130,3.0,10.0,94,0.00,,,0.00,VWS V12.08,2018-01-22 18:50:00,
2018-01-22 12:51:00,64.0,62.2,29.95,SE,133,4.0,10.0,94,0.00,,,0.00,VWS V12.08,2018-01-22 18:51:00,
2018-01-22 12:52:00,64.1,62.6,29.95,SE,135,4.0,10.0,95,0.00,,,0.00,VWS V12.08,2018-01-22 18:52:00,
2018-01-22 12:53:00,64.2,62.7,29.95,SE,126,4.0,10.0,95,0.00,,,0.00,VWS V12.08,2018-01-22 18:53:00,
2018-01-22 12:54:00,64.2,62.7,29.95,SE,142,5.0,10.0,95,0.00,,,0.00,VWS V12.08,2018-01-22 18:54:00,
2018-01-22 12:55:00,64.2,62.7,29.95,SE,126,0.0,10.0,95,0.00,,,0.00,VWS V12.08,2018-01-22 18:55:00,
2018-01-22 12:56:00,64.3,62.8,29.95,SSE,156,5.0,10.0,95,0.00,,,0.00,VWS V12.08,2018-01-22 18:56:00,
2018-01-22 12:57:00,64.3,62.8,29.95,SE,128,7.0,10.0,95,0.00,,,0.00,VWS V12.08,2018-01-22 18:57:00,